<?xml version="1.0" encoding="UTF-8" standalone="no" ?>
<gpx xmlns="http://www.topografix.com/GPX/1/1" xmlns:xsi="http://www.w3.org/2001/XMLSchema-instance" xsi:schemaLocation="http://www.topografix.com/GPX/1/1 http://www.topografix.com/GPX/1/1/gpx.xsd" version="1.1" creator="VisuGPX - https://www.visugpx.com">
  <metadata>
    <name>pic de Barran et pic du Mont</name>
  </metadata>
  <trk>
    <name><![CDATA[pic de Barran et pic du Mont]]></name>
    <trkseg>
      <trkpt lat="42.97271" lon="-0.00644">
        <ele>1494</ele>
        <time>2021-12-03T07:19:37Z</time>
      </trkpt>
      <trkpt lat="42.97251" lon="-0.00723">
        <ele>1493</ele>
        <time>2021-12-03T07:20:03Z</time>
      </trkpt>
      <trkpt lat="42.9724" lon="-0.00728">
        <ele>1493</ele>
        <time>2021-12-03T07:20:19Z</time>
      </trkpt>
      <trkpt lat="42.97234" lon="-0.00728">
        <ele>1491</ele>
        <time>2021-12-03T07:20:32Z</time>
      </trkpt>
      <trkpt lat="42.97231" lon="-0.00731">
        <ele>1492</ele>
        <time>2021-12-03T07:20:53Z</time>
      </trkpt>
      <trkpt lat="42.97232" lon="-0.00728">
        <ele>1491</ele>
        <time>2021-12-03T07:21:11Z</time>
      </trkpt>
      <trkpt lat="42.97231" lon="-0.00729">
        <ele>1492</ele>
        <time>2021-12-03T07:21:31Z</time>
      </trkpt>
      <trkpt lat="42.97229" lon="-0.00729">
        <ele>1493</ele>
        <time>2021-12-03T07:21:51Z</time>
      </trkpt>
      <trkpt lat="42.97231" lon="-0.00731">
        <ele>1493</ele>
        <time>2021-12-03T07:22:11Z</time>
      </trkpt>
      <trkpt lat="42.97225" lon="-0.00734">
        <ele>1493</ele>
        <time>2021-12-03T07:22:20Z</time>
      </trkpt>
      <trkpt lat="42.97212" lon="-0.00743">
        <ele>1493</ele>
        <time>2021-12-03T07:22:35Z</time>
      </trkpt>
      <trkpt lat="42.97203" lon="-0.00752">
        <ele>1493</ele>
        <time>2021-12-03T07:22:49Z</time>
      </trkpt>
      <trkpt lat="42.97197" lon="-0.00757">
        <ele>1492</ele>
        <time>2021-12-03T07:22:57Z</time>
      </trkpt>
      <trkpt lat="42.97187" lon="-0.00764">
        <ele>1493</ele>
        <time>2021-12-03T07:23:10Z</time>
      </trkpt>
      <trkpt lat="42.97183" lon="-0.00765">
        <ele>1493</ele>
        <time>2021-12-03T07:23:15Z</time>
      </trkpt>
      <trkpt lat="42.97171" lon="-0.00763">
        <ele>1496</ele>
        <time>2021-12-03T07:23:34Z</time>
      </trkpt>
      <trkpt lat="42.97163" lon="-0.00763">
        <ele>1497</ele>
        <time>2021-12-03T07:23:48Z</time>
      </trkpt>
      <trkpt lat="42.97155" lon="-0.00762">
        <ele>1499</ele>
        <time>2021-12-03T07:24:01Z</time>
      </trkpt>
      <trkpt lat="42.97149" lon="-0.00763">
        <ele>1501</ele>
        <time>2021-12-03T07:24:16Z</time>
      </trkpt>
      <trkpt lat="42.97141" lon="-0.00763">
        <ele>1502</ele>
        <time>2021-12-03T07:24:31Z</time>
      </trkpt>
      <trkpt lat="42.97135" lon="-0.00761">
        <ele>1503</ele>
        <time>2021-12-03T07:24:43Z</time>
      </trkpt>
      <trkpt lat="42.97128" lon="-0.0076">
        <ele>1505</ele>
        <time>2021-12-03T07:24:55Z</time>
      </trkpt>
      <trkpt lat="42.97121" lon="-0.00758">
        <ele>1506</ele>
        <time>2021-12-03T07:25:08Z</time>
      </trkpt>
      <trkpt lat="42.97114" lon="-0.00757">
        <ele>1507</ele>
        <time>2021-12-03T07:25:23Z</time>
      </trkpt>
      <trkpt lat="42.97116" lon="-0.0075">
        <ele>1509</ele>
        <time>2021-12-03T07:25:37Z</time>
      </trkpt>
      <trkpt lat="42.97117" lon="-0.00747">
        <ele>1509</ele>
        <time>2021-12-03T07:25:40Z</time>
      </trkpt>
      <trkpt lat="42.97118" lon="-0.00727">
        <ele>1511</ele>
        <time>2021-12-03T07:25:59Z</time>
      </trkpt>
      <trkpt lat="42.97116" lon="-0.00705">
        <ele>1513</ele>
        <time>2021-12-03T07:26:16Z</time>
      </trkpt>
      <trkpt lat="42.97118" lon="-0.00693">
        <ele>1514</ele>
        <time>2021-12-03T07:26:29Z</time>
      </trkpt>
      <trkpt lat="42.97123" lon="-0.00682">
        <ele>1515</ele>
        <time>2021-12-03T07:26:45Z</time>
      </trkpt>
      <trkpt lat="42.97125" lon="-0.00671">
        <ele>1517</ele>
        <time>2021-12-03T07:27:01Z</time>
      </trkpt>
      <trkpt lat="42.97124" lon="-0.00671">
        <ele>1517</ele>
        <time>2021-12-03T07:27:02Z</time>
      </trkpt>
      <trkpt lat="42.97112" lon="-0.00664">
        <ele>1519</ele>
        <time>2021-12-03T07:27:20Z</time>
      </trkpt>
      <trkpt lat="42.97103" lon="-0.0066">
        <ele>1522</ele>
        <time>2021-12-03T07:27:36Z</time>
      </trkpt>
      <trkpt lat="42.97094" lon="-0.00657">
        <ele>1523</ele>
        <time>2021-12-03T07:27:51Z</time>
      </trkpt>
      <trkpt lat="42.97097" lon="-0.00652">
        <ele>1525</ele>
        <time>2021-12-03T07:28:05Z</time>
      </trkpt>
      <trkpt lat="42.97099" lon="-0.0064">
        <ele>1527</ele>
        <time>2021-12-03T07:28:18Z</time>
      </trkpt>
      <trkpt lat="42.97099" lon="-0.00626">
        <ele>1528</ele>
        <time>2021-12-03T07:28:34Z</time>
      </trkpt>
      <trkpt lat="42.97101" lon="-0.00622">
        <ele>1529</ele>
        <time>2021-12-03T07:28:41Z</time>
      </trkpt>
      <trkpt lat="42.971" lon="-0.00612">
        <ele>1531</ele>
        <time>2021-12-03T07:28:57Z</time>
      </trkpt>
      <trkpt lat="42.97092" lon="-0.00607">
        <ele>1533</ele>
        <time>2021-12-03T07:29:11Z</time>
      </trkpt>
      <trkpt lat="42.97084" lon="-0.00602">
        <ele>1535</ele>
        <time>2021-12-03T07:29:26Z</time>
      </trkpt>
      <trkpt lat="42.97075" lon="-0.00595">
        <ele>1537</ele>
        <time>2021-12-03T07:29:42Z</time>
      </trkpt>
      <trkpt lat="42.97071" lon="-0.00591">
        <ele>1539</ele>
        <time>2021-12-03T07:29:57Z</time>
      </trkpt>
      <trkpt lat="42.97077" lon="-0.00584">
        <ele>1541</ele>
        <time>2021-12-03T07:30:10Z</time>
      </trkpt>
      <trkpt lat="42.97082" lon="-0.00579">
        <ele>1542</ele>
        <time>2021-12-03T07:30:24Z</time>
      </trkpt>
      <trkpt lat="42.97081" lon="-0.00571">
        <ele>1543</ele>
        <time>2021-12-03T07:30:36Z</time>
      </trkpt>
      <trkpt lat="42.97073" lon="-0.00565">
        <ele>1544</ele>
        <time>2021-12-03T07:30:50Z</time>
      </trkpt>
      <trkpt lat="42.97076" lon="-0.00561">
        <ele>1546</ele>
        <time>2021-12-03T07:31:04Z</time>
      </trkpt>
      <trkpt lat="42.9708" lon="-0.00548">
        <ele>1548</ele>
        <time>2021-12-03T07:31:19Z</time>
      </trkpt>
      <trkpt lat="42.97083" lon="-0.00539">
        <ele>1550</ele>
        <time>2021-12-03T07:31:35Z</time>
      </trkpt>
      <trkpt lat="42.97088" lon="-0.00531">
        <ele>1553</ele>
        <time>2021-12-03T07:31:52Z</time>
      </trkpt>
      <trkpt lat="42.97093" lon="-0.00523">
        <ele>1556</ele>
        <time>2021-12-03T07:32:07Z</time>
      </trkpt>
      <trkpt lat="42.97099" lon="-0.00511">
        <ele>1557</ele>
        <time>2021-12-03T07:32:22Z</time>
      </trkpt>
      <trkpt lat="42.97106" lon="-0.00498">
        <ele>1560</ele>
        <time>2021-12-03T07:32:38Z</time>
      </trkpt>
      <trkpt lat="42.97113" lon="-0.00487">
        <ele>1563</ele>
        <time>2021-12-03T07:32:55Z</time>
      </trkpt>
      <trkpt lat="42.97114" lon="-0.00486">
        <ele>1563</ele>
        <time>2021-12-03T07:32:57Z</time>
      </trkpt>
      <trkpt lat="42.97121" lon="-0.00472">
        <ele>1565</ele>
        <time>2021-12-03T07:33:12Z</time>
      </trkpt>
      <trkpt lat="42.97115" lon="-0.00462">
        <ele>1567</ele>
        <time>2021-12-03T07:33:24Z</time>
      </trkpt>
      <trkpt lat="42.97105" lon="-0.00454">
        <ele>1569</ele>
        <time>2021-12-03T07:33:40Z</time>
      </trkpt>
      <trkpt lat="42.97102" lon="-0.00452">
        <ele>1570</ele>
        <time>2021-12-03T07:33:45Z</time>
      </trkpt>
      <trkpt lat="42.97091" lon="-0.00442">
        <ele>1572</ele>
        <time>2021-12-03T07:34:00Z</time>
      </trkpt>
      <trkpt lat="42.97082" lon="-0.00437">
        <ele>1574</ele>
        <time>2021-12-03T07:34:15Z</time>
      </trkpt>
      <trkpt lat="42.97078" lon="-0.00435">
        <ele>1576</ele>
        <time>2021-12-03T07:34:32Z</time>
      </trkpt>
      <trkpt lat="42.97085" lon="-0.00425">
        <ele>1578</ele>
        <time>2021-12-03T07:34:48Z</time>
      </trkpt>
      <trkpt lat="42.97088" lon="-0.00418">
        <ele>1579</ele>
        <time>2021-12-03T07:34:57Z</time>
      </trkpt>
      <trkpt lat="42.97096" lon="-0.00406">
        <ele>1581</ele>
        <time>2021-12-03T07:35:14Z</time>
      </trkpt>
      <trkpt lat="42.97103" lon="-0.00393">
        <ele>1583</ele>
        <time>2021-12-03T07:35:33Z</time>
      </trkpt>
      <trkpt lat="42.97109" lon="-0.00383">
        <ele>1586</ele>
        <time>2021-12-03T07:35:51Z</time>
      </trkpt>
      <trkpt lat="42.97112" lon="-0.00374">
        <ele>1588</ele>
        <time>2021-12-03T07:36:06Z</time>
      </trkpt>
      <trkpt lat="42.97104" lon="-0.00367">
        <ele>1589</ele>
        <time>2021-12-03T07:36:19Z</time>
      </trkpt>
      <trkpt lat="42.97101" lon="-0.00362">
        <ele>1591</ele>
        <time>2021-12-03T07:36:31Z</time>
      </trkpt>
      <trkpt lat="42.97101" lon="-0.0036">
        <ele>1591</ele>
        <time>2021-12-03T07:36:57Z</time>
      </trkpt>
      <trkpt lat="42.97099" lon="-0.00358">
        <ele>1592</ele>
        <time>2021-12-03T07:37:22Z</time>
      </trkpt>
      <trkpt lat="42.97103" lon="-0.0036">
        <ele>1592</ele>
        <time>2021-12-03T07:37:46Z</time>
      </trkpt>
      <trkpt lat="42.97098" lon="-0.00352">
        <ele>1594</ele>
        <time>2021-12-03T07:37:57Z</time>
      </trkpt>
      <trkpt lat="42.97095" lon="-0.00347">
        <ele>1595</ele>
        <time>2021-12-03T07:38:02Z</time>
      </trkpt>
      <trkpt lat="42.97095" lon="-0.00345">
        <ele>1594</ele>
        <time>2021-12-03T07:38:14Z</time>
      </trkpt>
      <trkpt lat="42.97095" lon="-0.00346">
        <ele>1594</ele>
        <time>2021-12-03T07:38:36Z</time>
      </trkpt>
      <trkpt lat="42.97094" lon="-0.00343">
        <ele>1595</ele>
        <time>2021-12-03T07:38:44Z</time>
      </trkpt>
      <trkpt lat="42.97095" lon="-0.00323">
        <ele>1598</ele>
        <time>2021-12-03T07:39:00Z</time>
      </trkpt>
      <trkpt lat="42.97095" lon="-0.0032">
        <ele>1598</ele>
        <time>2021-12-03T07:39:02Z</time>
      </trkpt>
      <trkpt lat="42.97091" lon="-0.003">
        <ele>1600</ele>
        <time>2021-12-03T07:39:16Z</time>
      </trkpt>
      <trkpt lat="42.97087" lon="-0.00288">
        <ele>1600</ele>
        <time>2021-12-03T07:39:29Z</time>
      </trkpt>
      <trkpt lat="42.97084" lon="-0.00282">
        <ele>1601</ele>
        <time>2021-12-03T07:39:41Z</time>
      </trkpt>
      <trkpt lat="42.9708" lon="-0.0028">
        <ele>1602</ele>
        <time>2021-12-03T07:39:56Z</time>
      </trkpt>
      <trkpt lat="42.97071" lon="-0.0028">
        <ele>1604</ele>
        <time>2021-12-03T07:40:10Z</time>
      </trkpt>
      <trkpt lat="42.9706" lon="-0.00276">
        <ele>1606</ele>
        <time>2021-12-03T07:40:28Z</time>
      </trkpt>
      <trkpt lat="42.9705" lon="-0.00274">
        <ele>1610</ele>
        <time>2021-12-03T07:40:44Z</time>
      </trkpt>
      <trkpt lat="42.97042" lon="-0.00269">
        <ele>1613</ele>
        <time>2021-12-03T07:41:01Z</time>
      </trkpt>
      <trkpt lat="42.97036" lon="-0.00265">
        <ele>1614</ele>
        <time>2021-12-03T07:41:09Z</time>
      </trkpt>
      <trkpt lat="42.97032" lon="-0.00263">
        <ele>1615</ele>
        <time>2021-12-03T07:41:23Z</time>
      </trkpt>
      <trkpt lat="42.9703" lon="-0.00261">
        <ele>1616</ele>
        <time>2021-12-03T07:41:37Z</time>
      </trkpt>
      <trkpt lat="42.97019" lon="-0.00252">
        <ele>1619</ele>
        <time>2021-12-03T07:41:55Z</time>
      </trkpt>
      <trkpt lat="42.97013" lon="-0.00245">
        <ele>1621</ele>
        <time>2021-12-03T07:42:12Z</time>
      </trkpt>
      <trkpt lat="42.97005" lon="-0.00237">
        <ele>1624</ele>
        <time>2021-12-03T07:42:28Z</time>
      </trkpt>
      <trkpt lat="42.96998" lon="-0.00229">
        <ele>1627</ele>
        <time>2021-12-03T07:42:43Z</time>
      </trkpt>
      <trkpt lat="42.96991" lon="-0.00223">
        <ele>1630</ele>
        <time>2021-12-03T07:42:59Z</time>
      </trkpt>
      <trkpt lat="42.96986" lon="-0.00218">
        <ele>1632</ele>
        <time>2021-12-03T07:43:14Z</time>
      </trkpt>
      <trkpt lat="42.96979" lon="-0.00211">
        <ele>1635</ele>
        <time>2021-12-03T07:43:30Z</time>
      </trkpt>
      <trkpt lat="42.96973" lon="-0.00203">
        <ele>1639</ele>
        <time>2021-12-03T07:43:45Z</time>
      </trkpt>
      <trkpt lat="42.96972" lon="-0.00202">
        <ele>1639</ele>
        <time>2021-12-03T07:43:46Z</time>
      </trkpt>
      <trkpt lat="42.96966" lon="-0.00198">
        <ele>1640</ele>
        <time>2021-12-03T07:44:00Z</time>
      </trkpt>
      <trkpt lat="42.96959" lon="-0.00193">
        <ele>1642</ele>
        <time>2021-12-03T07:44:15Z</time>
      </trkpt>
      <trkpt lat="42.96952" lon="-0.00189">
        <ele>1645</ele>
        <time>2021-12-03T07:44:29Z</time>
      </trkpt>
      <trkpt lat="42.9695" lon="-0.00187">
        <ele>1646</ele>
        <time>2021-12-03T07:44:33Z</time>
      </trkpt>
      <trkpt lat="42.96943" lon="-0.00179">
        <ele>1649</ele>
        <time>2021-12-03T07:44:48Z</time>
      </trkpt>
      <trkpt lat="42.96938" lon="-0.00169">
        <ele>1651</ele>
        <time>2021-12-03T07:45:02Z</time>
      </trkpt>
      <trkpt lat="42.96933" lon="-0.00164">
        <ele>1654</ele>
        <time>2021-12-03T07:45:13Z</time>
      </trkpt>
      <trkpt lat="42.9693" lon="-0.00157">
        <ele>1656</ele>
        <time>2021-12-03T07:45:28Z</time>
      </trkpt>
      <trkpt lat="42.96926" lon="-0.00149">
        <ele>1659</ele>
        <time>2021-12-03T07:45:41Z</time>
      </trkpt>
      <trkpt lat="42.96922" lon="-0.0014">
        <ele>1662</ele>
        <time>2021-12-03T07:45:57Z</time>
      </trkpt>
      <trkpt lat="42.96918" lon="-0.0013">
        <ele>1665</ele>
        <time>2021-12-03T07:46:10Z</time>
      </trkpt>
      <trkpt lat="42.96913" lon="-0.00119">
        <ele>1667</ele>
        <time>2021-12-03T07:46:25Z</time>
      </trkpt>
      <trkpt lat="42.96906" lon="-0.00108">
        <ele>1669</ele>
        <time>2021-12-03T07:46:40Z</time>
      </trkpt>
      <trkpt lat="42.96902" lon="-0.00101">
        <ele>1670</ele>
        <time>2021-12-03T07:46:56Z</time>
      </trkpt>
      <trkpt lat="42.96897" lon="-0.00092">
        <ele>1671</ele>
        <time>2021-12-03T07:47:08Z</time>
      </trkpt>
      <trkpt lat="42.96893" lon="-0.00078">
        <ele>1672</ele>
        <time>2021-12-03T07:47:21Z</time>
      </trkpt>
      <trkpt lat="42.96892" lon="-0.00069">
        <ele>1672</ele>
        <time>2021-12-03T07:47:31Z</time>
      </trkpt>
      <trkpt lat="42.96892" lon="-0.00067">
        <ele>1671</ele>
        <time>2021-12-03T07:47:45Z</time>
      </trkpt>
      <trkpt lat="42.96892" lon="-0.00067">
        <ele>1671</ele>
        <time>2021-12-03T07:48:09Z</time>
      </trkpt>
      <trkpt lat="42.96891" lon="-0.00068">
        <ele>1671</ele>
        <time>2021-12-03T07:48:29Z</time>
      </trkpt>
      <trkpt lat="42.96891" lon="-0.00068">
        <ele>1672</ele>
        <time>2021-12-03T07:48:50Z</time>
      </trkpt>
      <trkpt lat="42.96893" lon="-0.00063">
        <ele>1672</ele>
        <time>2021-12-03T07:49:09Z</time>
      </trkpt>
      <trkpt lat="42.96893" lon="-0.00062">
        <ele>1672</ele>
        <time>2021-12-03T07:49:39Z</time>
      </trkpt>
      <trkpt lat="42.96892" lon="-0.0006">
        <ele>1671</ele>
        <time>2021-12-03T07:49:58Z</time>
      </trkpt>
      <trkpt lat="42.96891" lon="-0.00067">
        <ele>1672</ele>
        <time>2021-12-03T07:50:14Z</time>
      </trkpt>
      <trkpt lat="42.96893" lon="-0.00064">
        <ele>1672</ele>
        <time>2021-12-03T07:50:32Z</time>
      </trkpt>
      <trkpt lat="42.96891" lon="-0.00053">
        <ele>1671</ele>
        <time>2021-12-03T07:50:39Z</time>
      </trkpt>
      <trkpt lat="42.96886" lon="-0.00024">
        <ele>1670</ele>
        <time>2021-12-03T07:50:55Z</time>
      </trkpt>
      <trkpt lat="42.9688" lon="3.0E-5">
        <ele>1667</ele>
        <time>2021-12-03T07:51:07Z</time>
      </trkpt>
      <trkpt lat="42.96878" lon="0.0001">
        <ele>1667</ele>
        <time>2021-12-03T07:51:11Z</time>
      </trkpt>
      <trkpt lat="42.9687" lon="0.00032">
        <ele>1668</ele>
        <time>2021-12-03T07:51:27Z</time>
      </trkpt>
      <trkpt lat="42.96874" lon="0.00056">
        <ele>1666</ele>
        <time>2021-12-03T07:51:42Z</time>
      </trkpt>
      <trkpt lat="42.96876" lon="0.00067">
        <ele>1667</ele>
        <time>2021-12-03T07:51:49Z</time>
      </trkpt>
      <trkpt lat="42.96873" lon="0.00089">
        <ele>1668</ele>
        <time>2021-12-03T07:52:02Z</time>
      </trkpt>
      <trkpt lat="42.96863" lon="0.00109">
        <ele>1668</ele>
        <time>2021-12-03T07:52:16Z</time>
      </trkpt>
      <trkpt lat="42.96853" lon="0.0013">
        <ele>1668</ele>
        <time>2021-12-03T07:52:31Z</time>
      </trkpt>
      <trkpt lat="42.96848" lon="0.00139">
        <ele>1668</ele>
        <time>2021-12-03T07:52:43Z</time>
      </trkpt>
      <trkpt lat="42.96845" lon="0.00146">
        <ele>1668</ele>
        <time>2021-12-03T07:52:50Z</time>
      </trkpt>
      <trkpt lat="42.96842" lon="0.00159">
        <ele>1669</ele>
        <time>2021-12-03T07:53:02Z</time>
      </trkpt>
      <trkpt lat="42.96846" lon="0.00173">
        <ele>1669</ele>
        <time>2021-12-03T07:53:15Z</time>
      </trkpt>
      <trkpt lat="42.96852" lon="0.00198">
        <ele>1669</ele>
        <time>2021-12-03T07:53:31Z</time>
      </trkpt>
      <trkpt lat="42.96857" lon="0.00211">
        <ele>1670</ele>
        <time>2021-12-03T07:53:39Z</time>
      </trkpt>
      <trkpt lat="42.96861" lon="0.00231">
        <ele>1670</ele>
        <time>2021-12-03T07:53:52Z</time>
      </trkpt>
      <trkpt lat="42.96866" lon="0.00248">
        <ele>1670</ele>
        <time>2021-12-03T07:54:05Z</time>
      </trkpt>
      <trkpt lat="42.96869" lon="0.0026">
        <ele>1671</ele>
        <time>2021-12-03T07:54:14Z</time>
      </trkpt>
      <trkpt lat="42.96873" lon="0.00261">
        <ele>1672</ele>
        <time>2021-12-03T07:54:27Z</time>
      </trkpt>
      <trkpt lat="42.96874" lon="0.00262">
        <ele>1672</ele>
        <time>2021-12-03T07:54:46Z</time>
      </trkpt>
      <trkpt lat="42.96874" lon="0.00263">
        <ele>1672</ele>
        <time>2021-12-03T07:55:08Z</time>
      </trkpt>
      <trkpt lat="42.96875" lon="0.00267">
        <ele>1673</ele>
        <time>2021-12-03T07:55:18Z</time>
      </trkpt>
      <trkpt lat="42.9688" lon="0.00275">
        <ele>1672</ele>
        <time>2021-12-03T07:55:32Z</time>
      </trkpt>
      <trkpt lat="42.96884" lon="0.00284">
        <ele>1672</ele>
        <time>2021-12-03T07:55:44Z</time>
      </trkpt>
      <trkpt lat="42.96895" lon="0.00295">
        <ele>1671</ele>
        <time>2021-12-03T07:55:58Z</time>
      </trkpt>
      <trkpt lat="42.96904" lon="0.00311">
        <ele>1671</ele>
        <time>2021-12-03T07:56:11Z</time>
      </trkpt>
      <trkpt lat="42.96906" lon="0.0032">
        <ele>1672</ele>
        <time>2021-12-03T07:56:17Z</time>
      </trkpt>
      <trkpt lat="42.96901" lon="0.00341">
        <ele>1672</ele>
        <time>2021-12-03T07:56:31Z</time>
      </trkpt>
      <trkpt lat="42.969" lon="0.00345">
        <ele>1672</ele>
        <time>2021-12-03T07:56:34Z</time>
      </trkpt>
      <trkpt lat="42.96894" lon="0.00368">
        <ele>1673</ele>
        <time>2021-12-03T07:56:49Z</time>
      </trkpt>
      <trkpt lat="42.96893" lon="0.00375">
        <ele>1674</ele>
        <time>2021-12-03T07:56:54Z</time>
      </trkpt>
      <trkpt lat="42.9689" lon="0.00397">
        <ele>1675</ele>
        <time>2021-12-03T07:57:08Z</time>
      </trkpt>
      <trkpt lat="42.96889" lon="0.00424">
        <ele>1675</ele>
        <time>2021-12-03T07:57:24Z</time>
      </trkpt>
      <trkpt lat="42.9689" lon="0.00447">
        <ele>1676</ele>
        <time>2021-12-03T07:57:38Z</time>
      </trkpt>
      <trkpt lat="42.96889" lon="0.00469">
        <ele>1677</ele>
        <time>2021-12-03T07:57:52Z</time>
      </trkpt>
      <trkpt lat="42.96886" lon="0.00485">
        <ele>1676</ele>
        <time>2021-12-03T07:58:01Z</time>
      </trkpt>
      <trkpt lat="42.96885" lon="0.00488">
        <ele>1676</ele>
        <time>2021-12-03T07:58:03Z</time>
      </trkpt>
      <trkpt lat="42.96881" lon="0.00506">
        <ele>1677</ele>
        <time>2021-12-03T07:58:16Z</time>
      </trkpt>
      <trkpt lat="42.9688" lon="0.00507">
        <ele>1676</ele>
        <time>2021-12-03T07:58:31Z</time>
      </trkpt>
      <trkpt lat="42.96881" lon="0.00509">
        <ele>1677</ele>
        <time>2021-12-03T07:58:49Z</time>
      </trkpt>
      <trkpt lat="42.96879" lon="0.00514">
        <ele>1676</ele>
        <time>2021-12-03T07:59:04Z</time>
      </trkpt>
      <trkpt lat="42.96871" lon="0.00536">
        <ele>1676</ele>
        <time>2021-12-03T07:59:17Z</time>
      </trkpt>
      <trkpt lat="42.96861" lon="0.00562">
        <ele>1676</ele>
        <time>2021-12-03T07:59:32Z</time>
      </trkpt>
      <trkpt lat="42.96855" lon="0.00581">
        <ele>1675</ele>
        <time>2021-12-03T07:59:44Z</time>
      </trkpt>
      <trkpt lat="42.96851" lon="0.00599">
        <ele>1675</ele>
        <time>2021-12-03T07:59:57Z</time>
      </trkpt>
      <trkpt lat="42.96848" lon="0.00632">
        <ele>1674</ele>
        <time>2021-12-03T08:00:13Z</time>
      </trkpt>
      <trkpt lat="42.96845" lon="0.00665">
        <ele>1671</ele>
        <time>2021-12-03T08:00:27Z</time>
      </trkpt>
      <trkpt lat="42.96845" lon="0.00696">
        <ele>1668</ele>
        <time>2021-12-03T08:00:41Z</time>
      </trkpt>
      <trkpt lat="42.96845" lon="0.00696">
        <ele>1668</ele>
        <time>2021-12-03T08:00:45Z</time>
      </trkpt>
      <trkpt lat="42.96847" lon="0.0071">
        <ele>1666</ele>
        <time>2021-12-03T08:00:55Z</time>
      </trkpt>
      <trkpt lat="42.96847" lon="0.00718">
        <ele>1666</ele>
        <time>2021-12-03T08:00:59Z</time>
      </trkpt>
      <trkpt lat="42.96847" lon="0.00746">
        <ele>1663</ele>
        <time>2021-12-03T08:01:11Z</time>
      </trkpt>
      <trkpt lat="42.96847" lon="0.00761">
        <ele>1664</ele>
        <time>2021-12-03T08:01:21Z</time>
      </trkpt>
      <trkpt lat="42.96849" lon="0.00775">
        <ele>1667</ele>
        <time>2021-12-03T08:01:36Z</time>
      </trkpt>
      <trkpt lat="42.96847" lon="0.00787">
        <ele>1668</ele>
        <time>2021-12-03T08:01:49Z</time>
      </trkpt>
      <trkpt lat="42.96841" lon="0.00796">
        <ele>1673</ele>
        <time>2021-12-03T08:02:01Z</time>
      </trkpt>
      <trkpt lat="42.96841" lon="0.00798">
        <ele>1673</ele>
        <time>2021-12-03T08:02:03Z</time>
      </trkpt>
      <trkpt lat="42.96834" lon="0.00814">
        <ele>1673</ele>
        <time>2021-12-03T08:02:20Z</time>
      </trkpt>
      <trkpt lat="42.96834" lon="0.00814">
        <ele>1674</ele>
        <time>2021-12-03T08:02:21Z</time>
      </trkpt>
      <trkpt lat="42.96828" lon="0.00833">
        <ele>1675</ele>
        <time>2021-12-03T08:02:34Z</time>
      </trkpt>
      <trkpt lat="42.96816" lon="0.00845">
        <ele>1675</ele>
        <time>2021-12-03T08:02:49Z</time>
      </trkpt>
      <trkpt lat="42.968" lon="0.00849">
        <ele>1675</ele>
        <time>2021-12-03T08:03:03Z</time>
      </trkpt>
      <trkpt lat="42.96792" lon="0.00862">
        <ele>1677</ele>
        <time>2021-12-03T08:03:15Z</time>
      </trkpt>
      <trkpt lat="42.96791" lon="0.00867">
        <ele>1677</ele>
        <time>2021-12-03T08:03:19Z</time>
      </trkpt>
      <trkpt lat="42.96785" lon="0.00884">
        <ele>1679</ele>
        <time>2021-12-03T08:03:34Z</time>
      </trkpt>
      <trkpt lat="42.96784" lon="0.00892">
        <ele>1680</ele>
        <time>2021-12-03T08:03:42Z</time>
      </trkpt>
      <trkpt lat="42.96782" lon="0.00909">
        <ele>1681</ele>
        <time>2021-12-03T08:03:57Z</time>
      </trkpt>
      <trkpt lat="42.96778" lon="0.00917">
        <ele>1681</ele>
        <time>2021-12-03T08:04:05Z</time>
      </trkpt>
      <trkpt lat="42.96765" lon="0.00938">
        <ele>1683</ele>
        <time>2021-12-03T08:04:25Z</time>
      </trkpt>
      <trkpt lat="42.96757" lon="0.00954">
        <ele>1685</ele>
        <time>2021-12-03T08:04:41Z</time>
      </trkpt>
      <trkpt lat="42.96749" lon="0.00977">
        <ele>1685</ele>
        <time>2021-12-03T08:04:58Z</time>
      </trkpt>
      <trkpt lat="42.96742" lon="0.00999">
        <ele>1686</ele>
        <time>2021-12-03T08:05:14Z</time>
      </trkpt>
      <trkpt lat="42.96736" lon="0.01018">
        <ele>1687</ele>
        <time>2021-12-03T08:05:29Z</time>
      </trkpt>
      <trkpt lat="42.96736" lon="0.0102">
        <ele>1687</ele>
        <time>2021-12-03T08:05:31Z</time>
      </trkpt>
      <trkpt lat="42.96736" lon="0.01037">
        <ele>1689</ele>
        <time>2021-12-03T08:05:47Z</time>
      </trkpt>
      <trkpt lat="42.96732" lon="0.01059">
        <ele>1690</ele>
        <time>2021-12-03T08:06:03Z</time>
      </trkpt>
      <trkpt lat="42.96726" lon="0.01071">
        <ele>1691</ele>
        <time>2021-12-03T08:06:16Z</time>
      </trkpt>
      <trkpt lat="42.9672" lon="0.01087">
        <ele>1692</ele>
        <time>2021-12-03T08:06:31Z</time>
      </trkpt>
      <trkpt lat="42.96714" lon="0.01103">
        <ele>1693</ele>
        <time>2021-12-03T08:06:45Z</time>
      </trkpt>
      <trkpt lat="42.96714" lon="0.01112">
        <ele>1692</ele>
        <time>2021-12-03T08:06:52Z</time>
      </trkpt>
      <trkpt lat="42.96716" lon="0.01127">
        <ele>1692</ele>
        <time>2021-12-03T08:07:02Z</time>
      </trkpt>
      <trkpt lat="42.96721" lon="0.01156">
        <ele>1690</ele>
        <time>2021-12-03T08:07:18Z</time>
      </trkpt>
      <trkpt lat="42.96722" lon="0.01169">
        <ele>1688</ele>
        <time>2021-12-03T08:07:24Z</time>
      </trkpt>
      <trkpt lat="42.9672" lon="0.01197">
        <ele>1686</ele>
        <time>2021-12-03T08:07:39Z</time>
      </trkpt>
      <trkpt lat="42.96708" lon="0.01217">
        <ele>1683</ele>
        <time>2021-12-03T08:07:53Z</time>
      </trkpt>
      <trkpt lat="42.96696" lon="0.01237">
        <ele>1681</ele>
        <time>2021-12-03T08:08:08Z</time>
      </trkpt>
      <trkpt lat="42.96689" lon="0.01251">
        <ele>1679</ele>
        <time>2021-12-03T08:08:17Z</time>
      </trkpt>
      <trkpt lat="42.96682" lon="0.0127">
        <ele>1677</ele>
        <time>2021-12-03T08:08:31Z</time>
      </trkpt>
      <trkpt lat="42.96679" lon="0.01285">
        <ele>1677</ele>
        <time>2021-12-03T08:08:45Z</time>
      </trkpt>
      <trkpt lat="42.96677" lon="0.01292">
        <ele>1677</ele>
        <time>2021-12-03T08:09:14Z</time>
      </trkpt>
      <trkpt lat="42.96668" lon="0.01313">
        <ele>1678</ele>
        <time>2021-12-03T08:09:29Z</time>
      </trkpt>
      <trkpt lat="42.96661" lon="0.01329">
        <ele>1678</ele>
        <time>2021-12-03T08:09:42Z</time>
      </trkpt>
      <trkpt lat="42.96662" lon="0.01338">
        <ele>1677</ele>
        <time>2021-12-03T08:09:48Z</time>
      </trkpt>
      <trkpt lat="42.96656" lon="0.01358">
        <ele>1678</ele>
        <time>2021-12-03T08:10:03Z</time>
      </trkpt>
      <trkpt lat="42.96654" lon="0.01384">
        <ele>1677</ele>
        <time>2021-12-03T08:10:19Z</time>
      </trkpt>
      <trkpt lat="42.96649" lon="0.01407">
        <ele>1676</ele>
        <time>2021-12-03T08:10:32Z</time>
      </trkpt>
      <trkpt lat="42.96644" lon="0.01428">
        <ele>1676</ele>
        <time>2021-12-03T08:10:46Z</time>
      </trkpt>
      <trkpt lat="42.96643" lon="0.01433">
        <ele>1676</ele>
        <time>2021-12-03T08:10:49Z</time>
      </trkpt>
      <trkpt lat="42.96639" lon="0.01441">
        <ele>1675</ele>
        <time>2021-12-03T08:10:55Z</time>
      </trkpt>
      <trkpt lat="42.96631" lon="0.01457">
        <ele>1672</ele>
        <time>2021-12-03T08:11:02Z</time>
      </trkpt>
      <trkpt lat="42.96628" lon="0.01464">
        <ele>1670</ele>
        <time>2021-12-03T08:11:05Z</time>
      </trkpt>
      <trkpt lat="42.96622" lon="0.0147">
        <ele>1669</ele>
        <time>2021-12-03T08:11:16Z</time>
      </trkpt>
      <trkpt lat="42.96616" lon="0.0148">
        <ele>1669</ele>
        <time>2021-12-03T08:11:29Z</time>
      </trkpt>
      <trkpt lat="42.96607" lon="0.01491">
        <ele>1668</ele>
        <time>2021-12-03T08:11:43Z</time>
      </trkpt>
      <trkpt lat="42.96602" lon="0.01498">
        <ele>1669</ele>
        <time>2021-12-03T08:11:51Z</time>
      </trkpt>
      <trkpt lat="42.96601" lon="0.01499">
        <ele>1669</ele>
        <time>2021-12-03T08:11:53Z</time>
      </trkpt>
      <trkpt lat="42.96595" lon="0.01523">
        <ele>1669</ele>
        <time>2021-12-03T08:12:08Z</time>
      </trkpt>
      <trkpt lat="42.96594" lon="0.01525">
        <ele>1669</ele>
        <time>2021-12-03T08:12:20Z</time>
      </trkpt>
      <trkpt lat="42.96586" lon="0.01537">
        <ele>1671</ele>
        <time>2021-12-03T08:12:35Z</time>
      </trkpt>
      <trkpt lat="42.96583" lon="0.01543">
        <ele>1672</ele>
        <time>2021-12-03T08:12:50Z</time>
      </trkpt>
      <trkpt lat="42.96578" lon="0.01545">
        <ele>1673</ele>
        <time>2021-12-03T08:13:07Z</time>
      </trkpt>
      <trkpt lat="42.96579" lon="0.01544">
        <ele>1673</ele>
        <time>2021-12-03T08:13:26Z</time>
      </trkpt>
      <trkpt lat="42.96579" lon="0.01545">
        <ele>1673</ele>
        <time>2021-12-03T08:13:54Z</time>
      </trkpt>
      <trkpt lat="42.96578" lon="0.0155">
        <ele>1674</ele>
        <time>2021-12-03T08:14:07Z</time>
      </trkpt>
      <trkpt lat="42.96574" lon="0.01564">
        <ele>1676</ele>
        <time>2021-12-03T08:14:22Z</time>
      </trkpt>
      <trkpt lat="42.96573" lon="0.01578">
        <ele>1679</ele>
        <time>2021-12-03T08:14:36Z</time>
      </trkpt>
      <trkpt lat="42.96572" lon="0.01582">
        <ele>1679</ele>
        <time>2021-12-03T08:14:39Z</time>
      </trkpt>
      <trkpt lat="42.96568" lon="0.01598">
        <ele>1681</ele>
        <time>2021-12-03T08:14:56Z</time>
      </trkpt>
      <trkpt lat="42.96564" lon="0.01612">
        <ele>1682</ele>
        <time>2021-12-03T08:15:10Z</time>
      </trkpt>
      <trkpt lat="42.96564" lon="0.01613">
        <ele>1683</ele>
        <time>2021-12-03T08:15:11Z</time>
      </trkpt>
      <trkpt lat="42.96562" lon="0.01621">
        <ele>1684</ele>
        <time>2021-12-03T08:15:19Z</time>
      </trkpt>
      <trkpt lat="42.9656" lon="0.01634">
        <ele>1686</ele>
        <time>2021-12-03T08:15:34Z</time>
      </trkpt>
      <trkpt lat="42.96558" lon="0.0164">
        <ele>1687</ele>
        <time>2021-12-03T08:15:47Z</time>
      </trkpt>
      <trkpt lat="42.96558" lon="0.01641">
        <ele>1687</ele>
        <time>2021-12-03T08:15:48Z</time>
      </trkpt>
      <trkpt lat="42.96555" lon="0.01651">
        <ele>1689</ele>
        <time>2021-12-03T08:16:02Z</time>
      </trkpt>
      <trkpt lat="42.96552" lon="0.01661">
        <ele>1691</ele>
        <time>2021-12-03T08:16:15Z</time>
      </trkpt>
      <trkpt lat="42.9655" lon="0.01665">
        <ele>1692</ele>
        <time>2021-12-03T08:16:18Z</time>
      </trkpt>
      <trkpt lat="42.96545" lon="0.01677">
        <ele>1693</ele>
        <time>2021-12-03T08:16:34Z</time>
      </trkpt>
      <trkpt lat="42.9654" lon="0.01691">
        <ele>1695</ele>
        <time>2021-12-03T08:16:51Z</time>
      </trkpt>
      <trkpt lat="42.96535" lon="0.01701">
        <ele>1699</ele>
        <time>2021-12-03T08:17:09Z</time>
      </trkpt>
      <trkpt lat="42.96529" lon="0.01712">
        <ele>1700</ele>
        <time>2021-12-03T08:17:23Z</time>
      </trkpt>
      <trkpt lat="42.96532" lon="0.01711">
        <ele>1701</ele>
        <time>2021-12-03T08:17:34Z</time>
      </trkpt>
      <trkpt lat="42.9654" lon="0.01716">
        <ele>1704</ele>
        <time>2021-12-03T08:17:49Z</time>
      </trkpt>
      <trkpt lat="42.96532" lon="0.01723">
        <ele>1704</ele>
        <time>2021-12-03T08:18:03Z</time>
      </trkpt>
      <trkpt lat="42.96524" lon="0.0173">
        <ele>1706</ele>
        <time>2021-12-03T08:18:18Z</time>
      </trkpt>
      <trkpt lat="42.96513" lon="0.01737">
        <ele>1709</ele>
        <time>2021-12-03T08:18:37Z</time>
      </trkpt>
      <trkpt lat="42.9651" lon="0.01745">
        <ele>1713</ele>
        <time>2021-12-03T08:18:54Z</time>
      </trkpt>
      <trkpt lat="42.9651" lon="0.01753">
        <ele>1714</ele>
        <time>2021-12-03T08:19:08Z</time>
      </trkpt>
      <trkpt lat="42.96509" lon="0.01751">
        <ele>1714</ele>
        <time>2021-12-03T08:19:35Z</time>
      </trkpt>
      <trkpt lat="42.96508" lon="0.01754">
        <ele>1714</ele>
        <time>2021-12-03T08:20:02Z</time>
      </trkpt>
      <trkpt lat="42.96509" lon="0.01751">
        <ele>1714</ele>
        <time>2021-12-03T08:20:18Z</time>
      </trkpt>
      <trkpt lat="42.9651" lon="0.01753">
        <ele>1714</ele>
        <time>2021-12-03T08:20:36Z</time>
      </trkpt>
      <trkpt lat="42.96509" lon="0.01757">
        <ele>1714</ele>
        <time>2021-12-03T08:20:47Z</time>
      </trkpt>
      <trkpt lat="42.96515" lon="0.01762">
        <ele>1715</ele>
        <time>2021-12-03T08:20:53Z</time>
      </trkpt>
      <trkpt lat="42.96518" lon="0.01768">
        <ele>1716</ele>
        <time>2021-12-03T08:20:58Z</time>
      </trkpt>
      <trkpt lat="42.96518" lon="0.01772">
        <ele>1716</ele>
        <time>2021-12-03T08:21:00Z</time>
      </trkpt>
      <trkpt lat="42.96518" lon="0.01781">
        <ele>1717</ele>
        <time>2021-12-03T08:21:06Z</time>
      </trkpt>
      <trkpt lat="42.96518" lon="0.01784">
        <ele>1717</ele>
        <time>2021-12-03T08:21:08Z</time>
      </trkpt>
      <trkpt lat="42.96509" lon="0.01804">
        <ele>1718</ele>
        <time>2021-12-03T08:21:22Z</time>
      </trkpt>
      <trkpt lat="42.96498" lon="0.0183">
        <ele>1716</ele>
        <time>2021-12-03T08:21:36Z</time>
      </trkpt>
      <trkpt lat="42.96492" lon="0.01839">
        <ele>1715</ele>
        <time>2021-12-03T08:21:42Z</time>
      </trkpt>
      <trkpt lat="42.96495" lon="0.01846">
        <ele>1714</ele>
        <time>2021-12-03T08:21:48Z</time>
      </trkpt>
      <trkpt lat="42.96494" lon="0.0186">
        <ele>1716</ele>
        <time>2021-12-03T08:22:02Z</time>
      </trkpt>
      <trkpt lat="42.96495" lon="0.0186">
        <ele>1716</ele>
        <time>2021-12-03T08:22:19Z</time>
      </trkpt>
      <trkpt lat="42.96495" lon="0.01861">
        <ele>1717</ele>
        <time>2021-12-03T08:22:40Z</time>
      </trkpt>
      <trkpt lat="42.96494" lon="0.01862">
        <ele>1718</ele>
        <time>2021-12-03T08:22:49Z</time>
      </trkpt>
      <trkpt lat="42.96488" lon="0.01864">
        <ele>1718</ele>
        <time>2021-12-03T08:22:53Z</time>
      </trkpt>
      <trkpt lat="42.96481" lon="0.01875">
        <ele>1719</ele>
        <time>2021-12-03T08:23:03Z</time>
      </trkpt>
      <trkpt lat="42.96482" lon="0.01897">
        <ele>1722</ele>
        <time>2021-12-03T08:23:17Z</time>
      </trkpt>
      <trkpt lat="42.96485" lon="0.01918">
        <ele>1724</ele>
        <time>2021-12-03T08:23:31Z</time>
      </trkpt>
      <trkpt lat="42.96488" lon="0.01935">
        <ele>1726</ele>
        <time>2021-12-03T08:23:43Z</time>
      </trkpt>
      <trkpt lat="42.96488" lon="0.01952">
        <ele>1729</ele>
        <time>2021-12-03T08:23:55Z</time>
      </trkpt>
      <trkpt lat="42.96483" lon="0.0197">
        <ele>1732</ele>
        <time>2021-12-03T08:24:09Z</time>
      </trkpt>
      <trkpt lat="42.96477" lon="0.01983">
        <ele>1734</ele>
        <time>2021-12-03T08:24:20Z</time>
      </trkpt>
      <trkpt lat="42.96479" lon="0.01992">
        <ele>1734</ele>
        <time>2021-12-03T08:24:27Z</time>
      </trkpt>
      <trkpt lat="42.9647" lon="0.02012">
        <ele>1737</ele>
        <time>2021-12-03T08:24:44Z</time>
      </trkpt>
      <trkpt lat="42.96465" lon="0.02021">
        <ele>1739</ele>
        <time>2021-12-03T08:24:55Z</time>
      </trkpt>
      <trkpt lat="42.96457" lon="0.02044">
        <ele>1737</ele>
        <time>2021-12-03T08:25:12Z</time>
      </trkpt>
      <trkpt lat="42.9645" lon="0.0206">
        <ele>1735</ele>
        <time>2021-12-03T08:25:21Z</time>
      </trkpt>
      <trkpt lat="42.96437" lon="0.02074">
        <ele>1731</ele>
        <time>2021-12-03T08:25:29Z</time>
      </trkpt>
      <trkpt lat="42.96432" lon="0.02081">
        <ele>1731</ele>
        <time>2021-12-03T08:25:31Z</time>
      </trkpt>
      <trkpt lat="42.96427" lon="0.02088">
        <ele>1729</ele>
        <time>2021-12-03T08:25:34Z</time>
      </trkpt>
      <trkpt lat="42.96417" lon="0.02099">
        <ele>1729</ele>
        <time>2021-12-03T08:25:47Z</time>
      </trkpt>
      <trkpt lat="42.96418" lon="0.02104">
        <ele>1729</ele>
        <time>2021-12-03T08:25:55Z</time>
      </trkpt>
      <trkpt lat="42.96405" lon="0.02123">
        <ele>1730</ele>
        <time>2021-12-03T08:26:12Z</time>
      </trkpt>
      <trkpt lat="42.96395" lon="0.02134">
        <ele>1732</ele>
        <time>2021-12-03T08:26:26Z</time>
      </trkpt>
      <trkpt lat="42.9639" lon="0.0214">
        <ele>1734</ele>
        <time>2021-12-03T08:26:42Z</time>
      </trkpt>
      <trkpt lat="42.96383" lon="0.0215">
        <ele>1735</ele>
        <time>2021-12-03T08:26:56Z</time>
      </trkpt>
      <trkpt lat="42.96382" lon="0.02151">
        <ele>1736</ele>
        <time>2021-12-03T08:27:14Z</time>
      </trkpt>
      <trkpt lat="42.96379" lon="0.02152">
        <ele>1737</ele>
        <time>2021-12-03T08:27:31Z</time>
      </trkpt>
      <trkpt lat="42.96383" lon="0.02153">
        <ele>1739</ele>
        <time>2021-12-03T08:27:48Z</time>
      </trkpt>
      <trkpt lat="42.96392" lon="0.02153">
        <ele>1742</ele>
        <time>2021-12-03T08:28:03Z</time>
      </trkpt>
      <trkpt lat="42.96398" lon="0.02153">
        <ele>1742</ele>
        <time>2021-12-03T08:28:10Z</time>
      </trkpt>
      <trkpt lat="42.96412" lon="0.02153">
        <ele>1744</ele>
        <time>2021-12-03T08:28:26Z</time>
      </trkpt>
      <trkpt lat="42.96421" lon="0.0215">
        <ele>1746</ele>
        <time>2021-12-03T08:28:39Z</time>
      </trkpt>
      <trkpt lat="42.96429" lon="0.02147">
        <ele>1748</ele>
        <time>2021-12-03T08:28:53Z</time>
      </trkpt>
      <trkpt lat="42.96438" lon="0.0215">
        <ele>1751</ele>
        <time>2021-12-03T08:29:10Z</time>
      </trkpt>
      <trkpt lat="42.96446" lon="0.02158">
        <ele>1752</ele>
        <time>2021-12-03T08:29:26Z</time>
      </trkpt>
      <trkpt lat="42.96445" lon="0.02173">
        <ele>1753</ele>
        <time>2021-12-03T08:29:42Z</time>
      </trkpt>
      <trkpt lat="42.96447" lon="0.02185">
        <ele>1754</ele>
        <time>2021-12-03T08:29:57Z</time>
      </trkpt>
      <trkpt lat="42.96439" lon="0.02196">
        <ele>1757</ele>
        <time>2021-12-03T08:30:12Z</time>
      </trkpt>
      <trkpt lat="42.96432" lon="0.02208">
        <ele>1759</ele>
        <time>2021-12-03T08:30:31Z</time>
      </trkpt>
      <trkpt lat="42.96435" lon="0.02215">
        <ele>1760</ele>
        <time>2021-12-03T08:30:47Z</time>
      </trkpt>
      <trkpt lat="42.96434" lon="0.02228">
        <ele>1760</ele>
        <time>2021-12-03T08:31:02Z</time>
      </trkpt>
      <trkpt lat="42.96429" lon="0.02244">
        <ele>1760</ele>
        <time>2021-12-03T08:31:21Z</time>
      </trkpt>
      <trkpt lat="42.96424" lon="0.02253">
        <ele>1760</ele>
        <time>2021-12-03T08:31:49Z</time>
      </trkpt>
      <trkpt lat="42.96423" lon="0.02268">
        <ele>1759</ele>
        <time>2021-12-03T08:32:06Z</time>
      </trkpt>
      <trkpt lat="42.96416" lon="0.02284">
        <ele>1760</ele>
        <time>2021-12-03T08:32:20Z</time>
      </trkpt>
      <trkpt lat="42.96407" lon="0.02294">
        <ele>1761</ele>
        <time>2021-12-03T08:32:35Z</time>
      </trkpt>
      <trkpt lat="42.96403" lon="0.02296">
        <ele>1762</ele>
        <time>2021-12-03T08:32:40Z</time>
      </trkpt>
      <trkpt lat="42.96397" lon="0.02301">
        <ele>1763</ele>
        <time>2021-12-03T08:32:54Z</time>
      </trkpt>
      <trkpt lat="42.96392" lon="0.02306">
        <ele>1766</ele>
        <time>2021-12-03T08:33:02Z</time>
      </trkpt>
      <trkpt lat="42.96392" lon="0.02309">
        <ele>1764</ele>
        <time>2021-12-03T08:33:06Z</time>
      </trkpt>
      <trkpt lat="42.96384" lon="0.02318">
        <ele>1767</ele>
        <time>2021-12-03T08:33:24Z</time>
      </trkpt>
      <trkpt lat="42.96374" lon="0.02328">
        <ele>1769</ele>
        <time>2021-12-03T08:33:39Z</time>
      </trkpt>
      <trkpt lat="42.9637" lon="0.02341">
        <ele>1770</ele>
        <time>2021-12-03T08:33:56Z</time>
      </trkpt>
      <trkpt lat="42.96365" lon="0.02358">
        <ele>1773</ele>
        <time>2021-12-03T08:34:18Z</time>
      </trkpt>
      <trkpt lat="42.9636" lon="0.02369">
        <ele>1775</ele>
        <time>2021-12-03T08:34:37Z</time>
      </trkpt>
      <trkpt lat="42.96361" lon="0.02371">
        <ele>1775</ele>
        <time>2021-12-03T08:35:01Z</time>
      </trkpt>
      <trkpt lat="42.9636" lon="0.02372">
        <ele>1775</ele>
        <time>2021-12-03T08:35:19Z</time>
      </trkpt>
      <trkpt lat="42.96352" lon="0.02381">
        <ele>1777</ele>
        <time>2021-12-03T08:35:34Z</time>
      </trkpt>
      <trkpt lat="42.96347" lon="0.02386">
        <ele>1778</ele>
        <time>2021-12-03T08:35:44Z</time>
      </trkpt>
      <trkpt lat="42.96346" lon="0.02386">
        <ele>1779</ele>
        <time>2021-12-03T08:35:58Z</time>
      </trkpt>
      <trkpt lat="42.96346" lon="0.02383">
        <ele>1778</ele>
        <time>2021-12-03T08:36:24Z</time>
      </trkpt>
      <trkpt lat="42.96345" lon="0.02385">
        <ele>1777</ele>
        <time>2021-12-03T08:36:39Z</time>
      </trkpt>
      <trkpt lat="42.96338" lon="0.02394">
        <ele>1780</ele>
        <time>2021-12-03T08:36:53Z</time>
      </trkpt>
      <trkpt lat="42.96335" lon="0.02399">
        <ele>1780</ele>
        <time>2021-12-03T08:36:59Z</time>
      </trkpt>
      <trkpt lat="42.9633" lon="0.02413">
        <ele>1783</ele>
        <time>2021-12-03T08:37:15Z</time>
      </trkpt>
      <trkpt lat="42.96324" lon="0.02423">
        <ele>1785</ele>
        <time>2021-12-03T08:37:27Z</time>
      </trkpt>
      <trkpt lat="42.96314" lon="0.02437">
        <ele>1789</ele>
        <time>2021-12-03T08:37:46Z</time>
      </trkpt>
      <trkpt lat="42.96306" lon="0.02449">
        <ele>1792</ele>
        <time>2021-12-03T08:38:04Z</time>
      </trkpt>
      <trkpt lat="42.96304" lon="0.02451">
        <ele>1793</ele>
        <time>2021-12-03T08:38:12Z</time>
      </trkpt>
      <trkpt lat="42.963" lon="0.02443">
        <ele>1793</ele>
        <time>2021-12-03T08:38:24Z</time>
      </trkpt>
      <trkpt lat="42.96297" lon="0.02437">
        <ele>1793</ele>
        <time>2021-12-03T08:38:29Z</time>
      </trkpt>
      <trkpt lat="42.96294" lon="0.02424">
        <ele>1795</ele>
        <time>2021-12-03T08:38:47Z</time>
      </trkpt>
      <trkpt lat="42.96291" lon="0.02411">
        <ele>1798</ele>
        <time>2021-12-03T08:39:04Z</time>
      </trkpt>
      <trkpt lat="42.9629" lon="0.0242">
        <ele>1800</ele>
        <time>2021-12-03T08:39:16Z</time>
      </trkpt>
      <trkpt lat="42.96285" lon="0.02427">
        <ele>1802</ele>
        <time>2021-12-03T08:39:29Z</time>
      </trkpt>
      <trkpt lat="42.9628" lon="0.02436">
        <ele>1804</ele>
        <time>2021-12-03T08:39:43Z</time>
      </trkpt>
      <trkpt lat="42.96276" lon="0.02446">
        <ele>1805</ele>
        <time>2021-12-03T08:39:59Z</time>
      </trkpt>
      <trkpt lat="42.96274" lon="0.02455">
        <ele>1807</ele>
        <time>2021-12-03T08:40:15Z</time>
      </trkpt>
      <trkpt lat="42.96273" lon="0.02468">
        <ele>1809</ele>
        <time>2021-12-03T08:40:33Z</time>
      </trkpt>
      <trkpt lat="42.96274" lon="0.02479">
        <ele>1811</ele>
        <time>2021-12-03T08:40:49Z</time>
      </trkpt>
      <trkpt lat="42.96277" lon="0.02486">
        <ele>1813</ele>
        <time>2021-12-03T08:41:06Z</time>
      </trkpt>
      <trkpt lat="42.96278" lon="0.02497">
        <ele>1815</ele>
        <time>2021-12-03T08:41:21Z</time>
      </trkpt>
      <trkpt lat="42.96275" lon="0.02502">
        <ele>1817</ele>
        <time>2021-12-03T08:41:35Z</time>
      </trkpt>
      <trkpt lat="42.96273" lon="0.0251">
        <ele>1817</ele>
        <time>2021-12-03T08:41:47Z</time>
      </trkpt>
      <trkpt lat="42.96273" lon="0.02514">
        <ele>1817</ele>
        <time>2021-12-03T08:41:57Z</time>
      </trkpt>
      <trkpt lat="42.96269" lon="0.02524">
        <ele>1820</ele>
        <time>2021-12-03T08:42:12Z</time>
      </trkpt>
      <trkpt lat="42.96267" lon="0.0253">
        <ele>1820</ele>
        <time>2021-12-03T08:42:24Z</time>
      </trkpt>
      <trkpt lat="42.96265" lon="0.02541">
        <ele>1822</ele>
        <time>2021-12-03T08:42:38Z</time>
      </trkpt>
      <trkpt lat="42.96264" lon="0.02549">
        <ele>1823</ele>
        <time>2021-12-03T08:42:50Z</time>
      </trkpt>
      <trkpt lat="42.96262" lon="0.02551">
        <ele>1824</ele>
        <time>2021-12-03T08:42:53Z</time>
      </trkpt>
      <trkpt lat="42.96257" lon="0.02553">
        <ele>1826</ele>
        <time>2021-12-03T08:43:05Z</time>
      </trkpt>
      <trkpt lat="42.96251" lon="0.02557">
        <ele>1826</ele>
        <time>2021-12-03T08:43:19Z</time>
      </trkpt>
      <trkpt lat="42.9625" lon="0.02571">
        <ele>1830</ele>
        <time>2021-12-03T08:43:36Z</time>
      </trkpt>
      <trkpt lat="42.96251" lon="0.0258">
        <ele>1830</ele>
        <time>2021-12-03T08:43:46Z</time>
      </trkpt>
      <trkpt lat="42.96253" lon="0.02594">
        <ele>1832</ele>
        <time>2021-12-03T08:44:01Z</time>
      </trkpt>
      <trkpt lat="42.9625" lon="0.02603">
        <ele>1835</ele>
        <time>2021-12-03T08:44:14Z</time>
      </trkpt>
      <trkpt lat="42.96248" lon="0.02612">
        <ele>1836</ele>
        <time>2021-12-03T08:44:27Z</time>
      </trkpt>
      <trkpt lat="42.96249" lon="0.02625">
        <ele>1839</ele>
        <time>2021-12-03T08:44:42Z</time>
      </trkpt>
      <trkpt lat="42.96251" lon="0.02636">
        <ele>1841</ele>
        <time>2021-12-03T08:44:57Z</time>
      </trkpt>
      <trkpt lat="42.96253" lon="0.02647">
        <ele>1843</ele>
        <time>2021-12-03T08:45:10Z</time>
      </trkpt>
      <trkpt lat="42.96246" lon="0.02654">
        <ele>1845</ele>
        <time>2021-12-03T08:45:24Z</time>
      </trkpt>
      <trkpt lat="42.9625" lon="0.02661">
        <ele>1847</ele>
        <time>2021-12-03T08:45:41Z</time>
      </trkpt>
      <trkpt lat="42.96253" lon="0.0267">
        <ele>1849</ele>
        <time>2021-12-03T08:45:53Z</time>
      </trkpt>
      <trkpt lat="42.96246" lon="0.02682">
        <ele>1852</ele>
        <time>2021-12-03T08:46:11Z</time>
      </trkpt>
      <trkpt lat="42.9625" lon="0.02688">
        <ele>1853</ele>
        <time>2021-12-03T08:46:25Z</time>
      </trkpt>
      <trkpt lat="42.96256" lon="0.02695">
        <ele>1855</ele>
        <time>2021-12-03T08:46:38Z</time>
      </trkpt>
      <trkpt lat="42.96251" lon="0.02705">
        <ele>1858</ele>
        <time>2021-12-03T08:46:53Z</time>
      </trkpt>
      <trkpt lat="42.9625" lon="0.02719">
        <ele>1861</ele>
        <time>2021-12-03T08:47:12Z</time>
      </trkpt>
      <trkpt lat="42.96252" lon="0.02732">
        <ele>1862</ele>
        <time>2021-12-03T08:47:24Z</time>
      </trkpt>
      <trkpt lat="42.96248" lon="0.02749">
        <ele>1865</ele>
        <time>2021-12-03T08:47:41Z</time>
      </trkpt>
      <trkpt lat="42.96244" lon="0.02763">
        <ele>1866</ele>
        <time>2021-12-03T08:47:55Z</time>
      </trkpt>
      <trkpt lat="42.96234" lon="0.02777">
        <ele>1868</ele>
        <time>2021-12-03T08:48:12Z</time>
      </trkpt>
      <trkpt lat="42.96228" lon="0.02792">
        <ele>1867</ele>
        <time>2021-12-03T08:48:26Z</time>
      </trkpt>
      <trkpt lat="42.96222" lon="0.02805">
        <ele>1869</ele>
        <time>2021-12-03T08:48:41Z</time>
      </trkpt>
      <trkpt lat="42.96212" lon="0.0282">
        <ele>1870</ele>
        <time>2021-12-03T08:48:58Z</time>
      </trkpt>
      <trkpt lat="42.96211" lon="0.02821">
        <ele>1870</ele>
        <time>2021-12-03T08:49:00Z</time>
      </trkpt>
      <trkpt lat="42.96197" lon="0.02835">
        <ele>1870</ele>
        <time>2021-12-03T08:49:16Z</time>
      </trkpt>
      <trkpt lat="42.96183" lon="0.02845">
        <ele>1870</ele>
        <time>2021-12-03T08:49:32Z</time>
      </trkpt>
      <trkpt lat="42.96171" lon="0.02851">
        <ele>1871</ele>
        <time>2021-12-03T08:49:47Z</time>
      </trkpt>
      <trkpt lat="42.96161" lon="0.02862">
        <ele>1872</ele>
        <time>2021-12-03T08:50:03Z</time>
      </trkpt>
      <trkpt lat="42.9615" lon="0.02874">
        <ele>1874</ele>
        <time>2021-12-03T08:50:18Z</time>
      </trkpt>
      <trkpt lat="42.96143" lon="0.02884">
        <ele>1876</ele>
        <time>2021-12-03T08:50:31Z</time>
      </trkpt>
      <trkpt lat="42.96136" lon="0.02898">
        <ele>1877</ele>
        <time>2021-12-03T08:50:47Z</time>
      </trkpt>
      <trkpt lat="42.96128" lon="0.02913">
        <ele>1878</ele>
        <time>2021-12-03T08:51:01Z</time>
      </trkpt>
      <trkpt lat="42.96127" lon="0.02917">
        <ele>1878</ele>
        <time>2021-12-03T08:51:06Z</time>
      </trkpt>
      <trkpt lat="42.96121" lon="0.02933">
        <ele>1879</ele>
        <time>2021-12-03T08:51:21Z</time>
      </trkpt>
      <trkpt lat="42.96114" lon="0.02949">
        <ele>1881</ele>
        <time>2021-12-03T08:51:37Z</time>
      </trkpt>
      <trkpt lat="42.96108" lon="0.02967">
        <ele>1881</ele>
        <time>2021-12-03T08:51:52Z</time>
      </trkpt>
      <trkpt lat="42.96106" lon="0.02978">
        <ele>1882</ele>
        <time>2021-12-03T08:52:06Z</time>
      </trkpt>
      <trkpt lat="42.96106" lon="0.02979">
        <ele>1882</ele>
        <time>2021-12-03T08:52:09Z</time>
      </trkpt>
      <trkpt lat="42.96105" lon="0.02986">
        <ele>1881</ele>
        <time>2021-12-03T08:52:13Z</time>
      </trkpt>
      <trkpt lat="42.96101" lon="0.03002">
        <ele>1879</ele>
        <time>2021-12-03T08:52:26Z</time>
      </trkpt>
      <trkpt lat="42.961" lon="0.03006">
        <ele>1878</ele>
        <time>2021-12-03T08:52:38Z</time>
      </trkpt>
      <trkpt lat="42.961" lon="0.03004">
        <ele>1878</ele>
        <time>2021-12-03T08:52:55Z</time>
      </trkpt>
      <trkpt lat="42.96099" lon="0.03014">
        <ele>1878</ele>
        <time>2021-12-03T08:53:24Z</time>
      </trkpt>
      <trkpt lat="42.961" lon="0.03023">
        <ele>1879</ele>
        <time>2021-12-03T08:53:29Z</time>
      </trkpt>
      <trkpt lat="42.96096" lon="0.03041">
        <ele>1880</ele>
        <time>2021-12-03T08:53:44Z</time>
      </trkpt>
      <trkpt lat="42.9609" lon="0.03061">
        <ele>1882</ele>
        <time>2021-12-03T08:54:00Z</time>
      </trkpt>
      <trkpt lat="42.96086" lon="0.03075">
        <ele>1884</ele>
        <time>2021-12-03T08:54:14Z</time>
      </trkpt>
      <trkpt lat="42.96079" lon="0.0309">
        <ele>1885</ele>
        <time>2021-12-03T08:54:28Z</time>
      </trkpt>
      <trkpt lat="42.96074" lon="0.03102">
        <ele>1887</ele>
        <time>2021-12-03T08:54:42Z</time>
      </trkpt>
      <trkpt lat="42.96068" lon="0.03118">
        <ele>1889</ele>
        <time>2021-12-03T08:54:59Z</time>
      </trkpt>
      <trkpt lat="42.96067" lon="0.03119">
        <ele>1889</ele>
        <time>2021-12-03T08:55:01Z</time>
      </trkpt>
      <trkpt lat="42.9606" lon="0.03128">
        <ele>1892</ele>
        <time>2021-12-03T08:55:14Z</time>
      </trkpt>
      <trkpt lat="42.96057" lon="0.03131">
        <ele>1892</ele>
        <time>2021-12-03T08:55:18Z</time>
      </trkpt>
      <trkpt lat="42.96051" lon="0.03137">
        <ele>1893</ele>
        <time>2021-12-03T08:55:26Z</time>
      </trkpt>
      <trkpt lat="42.96041" lon="0.03143">
        <ele>1894</ele>
        <time>2021-12-03T08:55:37Z</time>
      </trkpt>
      <trkpt lat="42.96031" lon="0.03147">
        <ele>1896</ele>
        <time>2021-12-03T08:55:52Z</time>
      </trkpt>
      <trkpt lat="42.96022" lon="0.03158">
        <ele>1897</ele>
        <time>2021-12-03T08:56:08Z</time>
      </trkpt>
      <trkpt lat="42.96019" lon="0.03162">
        <ele>1898</ele>
        <time>2021-12-03T08:56:21Z</time>
      </trkpt>
      <trkpt lat="42.9602" lon="0.03164">
        <ele>1898</ele>
        <time>2021-12-03T08:56:37Z</time>
      </trkpt>
      <trkpt lat="42.96017" lon="0.03164">
        <ele>1898</ele>
        <time>2021-12-03T08:56:58Z</time>
      </trkpt>
      <trkpt lat="42.96018" lon="0.03161">
        <ele>1899</ele>
        <time>2021-12-03T08:57:25Z</time>
      </trkpt>
      <trkpt lat="42.96018" lon="0.03161">
        <ele>1897</ele>
        <time>2021-12-03T08:57:28Z</time>
      </trkpt>
      <trkpt lat="42.96019" lon="0.03162">
        <ele>1897</ele>
        <time>2021-12-03T08:57:53Z</time>
      </trkpt>
      <trkpt lat="42.96017" lon="0.03161">
        <ele>1897</ele>
        <time>2021-12-03T08:58:11Z</time>
      </trkpt>
      <trkpt lat="42.96019" lon="0.03166">
        <ele>1897</ele>
        <time>2021-12-03T08:58:38Z</time>
      </trkpt>
      <trkpt lat="42.96016" lon="0.03164">
        <ele>1898</ele>
        <time>2021-12-03T08:58:57Z</time>
      </trkpt>
      <trkpt lat="42.96015" lon="0.0316">
        <ele>1898</ele>
        <time>2021-12-03T08:59:17Z</time>
      </trkpt>
      <trkpt lat="42.96016" lon="0.03158">
        <ele>1898</ele>
        <time>2021-12-03T08:59:43Z</time>
      </trkpt>
      <trkpt lat="42.96015" lon="0.03164">
        <ele>1898</ele>
        <time>2021-12-03T09:00:07Z</time>
      </trkpt>
      <trkpt lat="42.96019" lon="0.03163">
        <ele>1898</ele>
        <time>2021-12-03T09:00:26Z</time>
      </trkpt>
      <trkpt lat="42.96017" lon="0.03171">
        <ele>1898</ele>
        <time>2021-12-03T09:00:36Z</time>
      </trkpt>
      <trkpt lat="42.96019" lon="0.03182">
        <ele>1900</ele>
        <time>2021-12-03T09:00:53Z</time>
      </trkpt>
      <trkpt lat="42.96028" lon="0.03187">
        <ele>1903</ele>
        <time>2021-12-03T09:01:10Z</time>
      </trkpt>
      <trkpt lat="42.96038" lon="0.03194">
        <ele>1905</ele>
        <time>2021-12-03T09:01:28Z</time>
      </trkpt>
      <trkpt lat="42.96035" lon="0.03199">
        <ele>1906</ele>
        <time>2021-12-03T09:01:42Z</time>
      </trkpt>
      <trkpt lat="42.96028" lon="0.03203">
        <ele>1908</ele>
        <time>2021-12-03T09:01:55Z</time>
      </trkpt>
      <trkpt lat="42.96021" lon="0.03208">
        <ele>1910</ele>
        <time>2021-12-03T09:02:11Z</time>
      </trkpt>
      <trkpt lat="42.96025" lon="0.03205">
        <ele>1910</ele>
        <time>2021-12-03T09:02:23Z</time>
      </trkpt>
      <trkpt lat="42.96029" lon="0.03207">
        <ele>1912</ele>
        <time>2021-12-03T09:02:36Z</time>
      </trkpt>
      <trkpt lat="42.96032" lon="0.03208">
        <ele>1912</ele>
        <time>2021-12-03T09:02:45Z</time>
      </trkpt>
      <trkpt lat="42.96041" lon="0.03215">
        <ele>1915</ele>
        <time>2021-12-03T09:03:00Z</time>
      </trkpt>
      <trkpt lat="42.96044" lon="0.03222">
        <ele>1916</ele>
        <time>2021-12-03T09:03:17Z</time>
      </trkpt>
      <trkpt lat="42.96035" lon="0.03225">
        <ele>1917</ele>
        <time>2021-12-03T09:03:31Z</time>
      </trkpt>
      <trkpt lat="42.9603" lon="0.03227">
        <ele>1918</ele>
        <time>2021-12-03T09:03:40Z</time>
      </trkpt>
      <trkpt lat="42.96021" lon="0.03233">
        <ele>1921</ele>
        <time>2021-12-03T09:03:59Z</time>
      </trkpt>
      <trkpt lat="42.96022" lon="0.03232">
        <ele>1921</ele>
        <time>2021-12-03T09:04:08Z</time>
      </trkpt>
      <trkpt lat="42.96024" lon="0.03232">
        <ele>1922</ele>
        <time>2021-12-03T09:04:10Z</time>
      </trkpt>
      <trkpt lat="42.96032" lon="0.03235">
        <ele>1924</ele>
        <time>2021-12-03T09:04:27Z</time>
      </trkpt>
      <trkpt lat="42.96041" lon="0.03243">
        <ele>1927</ele>
        <time>2021-12-03T09:04:43Z</time>
      </trkpt>
      <trkpt lat="42.96044" lon="0.03248">
        <ele>1928</ele>
        <time>2021-12-03T09:04:57Z</time>
      </trkpt>
      <trkpt lat="42.96036" lon="0.03246">
        <ele>1929</ele>
        <time>2021-12-03T09:05:06Z</time>
      </trkpt>
      <trkpt lat="42.96024" lon="0.03255">
        <ele>1930</ele>
        <time>2021-12-03T09:05:23Z</time>
      </trkpt>
      <trkpt lat="42.96023" lon="0.03253">
        <ele>1931</ele>
        <time>2021-12-03T09:05:42Z</time>
      </trkpt>
      <trkpt lat="42.96025" lon="0.03254">
        <ele>1932</ele>
        <time>2021-12-03T09:05:45Z</time>
      </trkpt>
      <trkpt lat="42.96028" lon="0.03255">
        <ele>1932</ele>
        <time>2021-12-03T09:05:49Z</time>
      </trkpt>
      <trkpt lat="42.96029" lon="0.03255">
        <ele>1932</ele>
        <time>2021-12-03T09:05:51Z</time>
      </trkpt>
      <trkpt lat="42.96038" lon="0.03259">
        <ele>1935</ele>
        <time>2021-12-03T09:06:05Z</time>
      </trkpt>
      <trkpt lat="42.96033" lon="0.03262">
        <ele>1936</ele>
        <time>2021-12-03T09:06:19Z</time>
      </trkpt>
      <trkpt lat="42.96022" lon="0.03266">
        <ele>1937</ele>
        <time>2021-12-03T09:06:35Z</time>
      </trkpt>
      <trkpt lat="42.96018" lon="0.03267">
        <ele>1939</ele>
        <time>2021-12-03T09:06:47Z</time>
      </trkpt>
      <trkpt lat="42.96021" lon="0.03269">
        <ele>1939</ele>
        <time>2021-12-03T09:07:01Z</time>
      </trkpt>
      <trkpt lat="42.96031" lon="0.03272">
        <ele>1942</ele>
        <time>2021-12-03T09:07:16Z</time>
      </trkpt>
      <trkpt lat="42.9604" lon="0.0328">
        <ele>1944</ele>
        <time>2021-12-03T09:07:34Z</time>
      </trkpt>
      <trkpt lat="42.96043" lon="0.03286">
        <ele>1945</ele>
        <time>2021-12-03T09:07:48Z</time>
      </trkpt>
      <trkpt lat="42.96032" lon="0.03288">
        <ele>1948</ele>
        <time>2021-12-03T09:08:04Z</time>
      </trkpt>
      <trkpt lat="42.96022" lon="0.03289">
        <ele>1950</ele>
        <time>2021-12-03T09:08:20Z</time>
      </trkpt>
      <trkpt lat="42.9602" lon="0.03287">
        <ele>1949</ele>
        <time>2021-12-03T09:08:34Z</time>
      </trkpt>
      <trkpt lat="42.96027" lon="0.03289">
        <ele>1951</ele>
        <time>2021-12-03T09:08:51Z</time>
      </trkpt>
      <trkpt lat="42.9604" lon="0.033">
        <ele>1953</ele>
        <time>2021-12-03T09:09:07Z</time>
      </trkpt>
      <trkpt lat="42.96042" lon="0.03307">
        <ele>1954</ele>
        <time>2021-12-03T09:09:25Z</time>
      </trkpt>
      <trkpt lat="42.96032" lon="0.03305">
        <ele>1956</ele>
        <time>2021-12-03T09:09:39Z</time>
      </trkpt>
      <trkpt lat="42.96024" lon="0.03303">
        <ele>1957</ele>
        <time>2021-12-03T09:09:52Z</time>
      </trkpt>
      <trkpt lat="42.96028" lon="0.03303">
        <ele>1957</ele>
        <time>2021-12-03T09:10:09Z</time>
      </trkpt>
      <trkpt lat="42.96034" lon="0.0331">
        <ele>1959</ele>
        <time>2021-12-03T09:10:25Z</time>
      </trkpt>
      <trkpt lat="42.96029" lon="0.03311">
        <ele>1960</ele>
        <time>2021-12-03T09:10:40Z</time>
      </trkpt>
      <trkpt lat="42.96021" lon="0.03309">
        <ele>1961</ele>
        <time>2021-12-03T09:10:54Z</time>
      </trkpt>
      <trkpt lat="42.96012" lon="0.03311">
        <ele>1964</ele>
        <time>2021-12-03T09:11:14Z</time>
      </trkpt>
      <trkpt lat="42.96007" lon="0.03323">
        <ele>1966</ele>
        <time>2021-12-03T09:11:31Z</time>
      </trkpt>
      <trkpt lat="42.96007" lon="0.0333">
        <ele>1968</ele>
        <time>2021-12-03T09:11:45Z</time>
      </trkpt>
      <trkpt lat="42.96008" lon="0.0334">
        <ele>1971</ele>
        <time>2021-12-03T09:11:57Z</time>
      </trkpt>
      <trkpt lat="42.96013" lon="0.03348">
        <ele>1973</ele>
        <time>2021-12-03T09:12:12Z</time>
      </trkpt>
      <trkpt lat="42.96018" lon="0.0335">
        <ele>1976</ele>
        <time>2021-12-03T09:12:24Z</time>
      </trkpt>
      <trkpt lat="42.96026" lon="0.03355">
        <ele>1977</ele>
        <time>2021-12-03T09:12:37Z</time>
      </trkpt>
      <trkpt lat="42.96032" lon="0.03364">
        <ele>1980</ele>
        <time>2021-12-03T09:12:51Z</time>
      </trkpt>
      <trkpt lat="42.96037" lon="0.03372">
        <ele>1981</ele>
        <time>2021-12-03T09:13:05Z</time>
      </trkpt>
      <trkpt lat="42.96041" lon="0.03377">
        <ele>1983</ele>
        <time>2021-12-03T09:13:17Z</time>
      </trkpt>
      <trkpt lat="42.9605" lon="0.0338">
        <ele>1982</ele>
        <time>2021-12-03T09:13:33Z</time>
      </trkpt>
      <trkpt lat="42.96052" lon="0.03382">
        <ele>1984</ele>
        <time>2021-12-03T09:13:46Z</time>
      </trkpt>
      <trkpt lat="42.96052" lon="0.03382">
        <ele>1985</ele>
        <time>2021-12-03T09:13:58Z</time>
      </trkpt>
      <trkpt lat="42.96052" lon="0.03382">
        <ele>1982</ele>
        <time>2021-12-03T09:13:59Z</time>
      </trkpt>
      <trkpt lat="42.96052" lon="0.03382">
        <ele>1983</ele>
        <time>2021-12-03T09:14:00Z</time>
      </trkpt>
      <trkpt lat="42.96052" lon="0.03383">
        <ele>1984</ele>
        <time>2021-12-03T09:14:02Z</time>
      </trkpt>
      <trkpt lat="42.96052" lon="0.03382">
        <ele>1984</ele>
        <time>2021-12-03T09:14:19Z</time>
      </trkpt>
      <trkpt lat="42.96053" lon="0.03381">
        <ele>1985</ele>
        <time>2021-12-03T09:14:40Z</time>
      </trkpt>
      <trkpt lat="42.96053" lon="0.03382">
        <ele>1985</ele>
        <time>2021-12-03T09:14:41Z</time>
      </trkpt>
      <trkpt lat="42.96053" lon="0.03383">
        <ele>1983</ele>
        <time>2021-12-03T09:14:59Z</time>
      </trkpt>
      <trkpt lat="42.96053" lon="0.03383">
        <ele>1983</ele>
        <time>2021-12-03T09:15:04Z</time>
      </trkpt>
      <trkpt lat="42.96053" lon="0.03382">
        <ele>1983</ele>
        <time>2021-12-03T09:15:17Z</time>
      </trkpt>
      <trkpt lat="42.96053" lon="0.03381">
        <ele>1985</ele>
        <time>2021-12-03T09:15:36Z</time>
      </trkpt>
      <trkpt lat="42.96052" lon="0.03382">
        <ele>1983</ele>
        <time>2021-12-03T09:15:49Z</time>
      </trkpt>
      <trkpt lat="42.96057" lon="0.03389">
        <ele>1983</ele>
        <time>2021-12-03T09:16:04Z</time>
      </trkpt>
      <trkpt lat="42.96058" lon="0.03389">
        <ele>1981</ele>
        <time>2021-12-03T09:16:17Z</time>
      </trkpt>
      <trkpt lat="42.96058" lon="0.03389">
        <ele>1983</ele>
        <time>2021-12-03T09:16:28Z</time>
      </trkpt>
      <trkpt lat="42.9606" lon="0.0339">
        <ele>1984</ele>
        <time>2021-12-03T09:16:34Z</time>
      </trkpt>
      <trkpt lat="42.96066" lon="0.03396">
        <ele>1980</ele>
        <time>2021-12-03T09:16:42Z</time>
      </trkpt>
      <trkpt lat="42.96067" lon="0.03397">
        <ele>1980</ele>
        <time>2021-12-03T09:16:43Z</time>
      </trkpt>
      <trkpt lat="42.96078" lon="0.03404">
        <ele>1977</ele>
        <time>2021-12-03T09:16:53Z</time>
      </trkpt>
      <trkpt lat="42.96087" lon="0.03417">
        <ele>1974</ele>
        <time>2021-12-03T09:17:03Z</time>
      </trkpt>
      <trkpt lat="42.96097" lon="0.03431">
        <ele>1972</ele>
        <time>2021-12-03T09:17:13Z</time>
      </trkpt>
      <trkpt lat="42.96099" lon="0.03434">
        <ele>1972</ele>
        <time>2021-12-03T09:17:16Z</time>
      </trkpt>
      <trkpt lat="42.96107" lon="0.03446">
        <ele>1969</ele>
        <time>2021-12-03T09:17:29Z</time>
      </trkpt>
      <trkpt lat="42.96107" lon="0.03446">
        <ele>1969</ele>
        <time>2021-12-03T09:17:30Z</time>
      </trkpt>
      <trkpt lat="42.96106" lon="0.03447">
        <ele>1972</ele>
        <time>2021-12-03T09:17:36Z</time>
      </trkpt>
      <trkpt lat="42.96109" lon="0.0345">
        <ele>1971</ele>
        <time>2021-12-03T09:17:42Z</time>
      </trkpt>
      <trkpt lat="42.96121" lon="0.03468">
        <ele>1967</ele>
        <time>2021-12-03T09:17:52Z</time>
      </trkpt>
      <trkpt lat="42.96129" lon="0.0348">
        <ele>1966</ele>
        <time>2021-12-03T09:17:58Z</time>
      </trkpt>
      <trkpt lat="42.9613" lon="0.03482">
        <ele>1966</ele>
        <time>2021-12-03T09:18:00Z</time>
      </trkpt>
      <trkpt lat="42.96134" lon="0.03486">
        <ele>1965</ele>
        <time>2021-12-03T09:18:03Z</time>
      </trkpt>
      <trkpt lat="42.96144" lon="0.03497">
        <ele>1961</ele>
        <time>2021-12-03T09:18:07Z</time>
      </trkpt>
      <trkpt lat="42.96146" lon="0.035">
        <ele>1962</ele>
        <time>2021-12-03T09:18:08Z</time>
      </trkpt>
      <trkpt lat="42.96153" lon="0.03515">
        <ele>1960</ele>
        <time>2021-12-03T09:18:20Z</time>
      </trkpt>
      <trkpt lat="42.96163" lon="0.03528">
        <ele>1962</ele>
        <time>2021-12-03T09:18:36Z</time>
      </trkpt>
      <trkpt lat="42.96169" lon="0.03534">
        <ele>1963</ele>
        <time>2021-12-03T09:18:48Z</time>
      </trkpt>
      <trkpt lat="42.96172" lon="0.03538">
        <ele>1964</ele>
        <time>2021-12-03T09:18:52Z</time>
      </trkpt>
      <trkpt lat="42.96184" lon="0.03552">
        <ele>1966</ele>
        <time>2021-12-03T09:19:08Z</time>
      </trkpt>
      <trkpt lat="42.96195" lon="0.03557">
        <ele>1967</ele>
        <time>2021-12-03T09:19:20Z</time>
      </trkpt>
      <trkpt lat="42.96206" lon="0.03564">
        <ele>1966</ele>
        <time>2021-12-03T09:19:33Z</time>
      </trkpt>
      <trkpt lat="42.96217" lon="0.03583">
        <ele>1966</ele>
        <time>2021-12-03T09:19:48Z</time>
      </trkpt>
      <trkpt lat="42.9622" lon="0.03589">
        <ele>1966</ele>
        <time>2021-12-03T09:19:53Z</time>
      </trkpt>
      <trkpt lat="42.96223" lon="0.03605">
        <ele>1965</ele>
        <time>2021-12-03T09:20:06Z</time>
      </trkpt>
      <trkpt lat="42.9622" lon="0.03603">
        <ele>1965</ele>
        <time>2021-12-03T09:20:23Z</time>
      </trkpt>
      <trkpt lat="42.9622" lon="0.03602">
        <ele>1964</ele>
        <time>2021-12-03T09:20:40Z</time>
      </trkpt>
      <trkpt lat="42.96222" lon="0.03608">
        <ele>1964</ele>
        <time>2021-12-03T09:20:53Z</time>
      </trkpt>
      <trkpt lat="42.96229" lon="0.03634">
        <ele>1964</ele>
        <time>2021-12-03T09:21:06Z</time>
      </trkpt>
      <trkpt lat="42.96238" lon="0.0365">
        <ele>1963</ele>
        <time>2021-12-03T09:21:20Z</time>
      </trkpt>
      <trkpt lat="42.96252" lon="0.0367">
        <ele>1964</ele>
        <time>2021-12-03T09:21:38Z</time>
      </trkpt>
      <trkpt lat="42.96256" lon="0.03681">
        <ele>1967</ele>
        <time>2021-12-03T09:21:48Z</time>
      </trkpt>
      <trkpt lat="42.96258" lon="0.03687">
        <ele>1969</ele>
        <time>2021-12-03T09:21:54Z</time>
      </trkpt>
      <trkpt lat="42.9626" lon="0.03699">
        <ele>1971</ele>
        <time>2021-12-03T09:22:10Z</time>
      </trkpt>
      <trkpt lat="42.96259" lon="0.03705">
        <ele>1972</ele>
        <time>2021-12-03T09:22:19Z</time>
      </trkpt>
      <trkpt lat="42.96261" lon="0.03711">
        <ele>1973</ele>
        <time>2021-12-03T09:22:30Z</time>
      </trkpt>
      <trkpt lat="42.96265" lon="0.03712">
        <ele>1973</ele>
        <time>2021-12-03T09:22:35Z</time>
      </trkpt>
      <trkpt lat="42.96274" lon="0.03712">
        <ele>1977</ele>
        <time>2021-12-03T09:22:49Z</time>
      </trkpt>
      <trkpt lat="42.96279" lon="0.03713">
        <ele>1979</ele>
        <time>2021-12-03T09:22:57Z</time>
      </trkpt>
      <trkpt lat="42.96288" lon="0.03718">
        <ele>1982</ele>
        <time>2021-12-03T09:23:10Z</time>
      </trkpt>
      <trkpt lat="42.96289" lon="0.03719">
        <ele>1985</ele>
        <time>2021-12-03T09:23:12Z</time>
      </trkpt>
      <trkpt lat="42.96289" lon="0.03719">
        <ele>1985</ele>
        <time>2021-12-03T09:23:13Z</time>
      </trkpt>
      <trkpt lat="42.96285" lon="0.03729">
        <ele>1987</ele>
        <time>2021-12-03T09:23:28Z</time>
      </trkpt>
      <trkpt lat="42.9628" lon="0.03742">
        <ele>1991</ele>
        <time>2021-12-03T09:23:44Z</time>
      </trkpt>
      <trkpt lat="42.96281" lon="0.03742">
        <ele>1989</ele>
        <time>2021-12-03T09:23:47Z</time>
      </trkpt>
      <trkpt lat="42.96282" lon="0.03741">
        <ele>1985</ele>
        <time>2021-12-03T09:23:50Z</time>
      </trkpt>
      <trkpt lat="42.96284" lon="0.03741">
        <ele>1987</ele>
        <time>2021-12-03T09:23:53Z</time>
      </trkpt>
      <trkpt lat="42.96289" lon="0.0374">
        <ele>1988</ele>
        <time>2021-12-03T09:24:01Z</time>
      </trkpt>
      <trkpt lat="42.96297" lon="0.03741">
        <ele>1989</ele>
        <time>2021-12-03T09:24:12Z</time>
      </trkpt>
      <trkpt lat="42.96299" lon="0.03742">
        <ele>1991</ele>
        <time>2021-12-03T09:24:14Z</time>
      </trkpt>
      <trkpt lat="42.96306" lon="0.03745">
        <ele>1994</ele>
        <time>2021-12-03T09:24:26Z</time>
      </trkpt>
      <trkpt lat="42.96317" lon="0.03751">
        <ele>1996</ele>
        <time>2021-12-03T09:24:41Z</time>
      </trkpt>
      <trkpt lat="42.96324" lon="0.03756">
        <ele>1999</ele>
        <time>2021-12-03T09:24:51Z</time>
      </trkpt>
      <trkpt lat="42.96329" lon="0.03761">
        <ele>2001</ele>
        <time>2021-12-03T09:24:59Z</time>
      </trkpt>
      <trkpt lat="42.96336" lon="0.0377">
        <ele>1999</ele>
        <time>2021-12-03T09:25:12Z</time>
      </trkpt>
      <trkpt lat="42.96336" lon="0.0377">
        <ele>1999</ele>
        <time>2021-12-03T09:25:13Z</time>
      </trkpt>
      <trkpt lat="42.96337" lon="0.03772">
        <ele>2001</ele>
        <time>2021-12-03T09:25:15Z</time>
      </trkpt>
      <trkpt lat="42.96341" lon="0.03775">
        <ele>1999</ele>
        <time>2021-12-03T09:25:20Z</time>
      </trkpt>
      <trkpt lat="42.96351" lon="0.03782">
        <ele>1999</ele>
        <time>2021-12-03T09:25:32Z</time>
      </trkpt>
      <trkpt lat="42.96358" lon="0.03787">
        <ele>2001</ele>
        <time>2021-12-03T09:25:45Z</time>
      </trkpt>
      <trkpt lat="42.96364" lon="0.03798">
        <ele>2002</ele>
        <time>2021-12-03T09:25:58Z</time>
      </trkpt>
      <trkpt lat="42.96376" lon="0.03802">
        <ele>2000</ele>
        <time>2021-12-03T09:26:10Z</time>
      </trkpt>
      <trkpt lat="42.96387" lon="0.03803">
        <ele>1999</ele>
        <time>2021-12-03T09:26:22Z</time>
      </trkpt>
      <trkpt lat="42.96387" lon="0.03802">
        <ele>1996</ele>
        <time>2021-12-03T09:26:28Z</time>
      </trkpt>
      <trkpt lat="42.96387" lon="0.03803">
        <ele>2000</ele>
        <time>2021-12-03T09:26:29Z</time>
      </trkpt>
      <trkpt lat="42.96387" lon="0.03804">
        <ele>2001</ele>
        <time>2021-12-03T09:26:31Z</time>
      </trkpt>
      <trkpt lat="42.96387" lon="0.03808">
        <ele>2000</ele>
        <time>2021-12-03T09:26:52Z</time>
      </trkpt>
      <trkpt lat="42.96381" lon="0.03807">
        <ele>2002</ele>
        <time>2021-12-03T09:26:58Z</time>
      </trkpt>
      <trkpt lat="42.96369" lon="0.03799">
        <ele>2002</ele>
        <time>2021-12-03T09:27:11Z</time>
      </trkpt>
      <trkpt lat="42.96359" lon="0.03791">
        <ele>2002</ele>
        <time>2021-12-03T09:27:24Z</time>
      </trkpt>
      <trkpt lat="42.9635" lon="0.03781">
        <ele>2002</ele>
        <time>2021-12-03T09:27:38Z</time>
      </trkpt>
      <trkpt lat="42.96349" lon="0.03779">
        <ele>2001</ele>
        <time>2021-12-03T09:27:50Z</time>
      </trkpt>
      <trkpt lat="42.96349" lon="0.03779">
        <ele>1998</ele>
        <time>2021-12-03T09:28:05Z</time>
      </trkpt>
      <trkpt lat="42.96347" lon="0.03778">
        <ele>1998</ele>
        <time>2021-12-03T09:28:36Z</time>
      </trkpt>
      <trkpt lat="42.96347" lon="0.03779">
        <ele>1999</ele>
        <time>2021-12-03T09:29:12Z</time>
      </trkpt>
      <trkpt lat="42.96347" lon="0.03779">
        <ele>1999</ele>
        <time>2021-12-03T09:29:43Z</time>
      </trkpt>
      <trkpt lat="42.96347" lon="0.0378">
        <ele>1999</ele>
        <time>2021-12-03T09:30:16Z</time>
      </trkpt>
      <trkpt lat="42.96348" lon="0.03777">
        <ele>1998</ele>
        <time>2021-12-03T09:30:48Z</time>
      </trkpt>
      <trkpt lat="42.96349" lon="0.03778">
        <ele>1999</ele>
        <time>2021-12-03T09:31:20Z</time>
      </trkpt>
      <trkpt lat="42.96348" lon="0.03778">
        <ele>1998</ele>
        <time>2021-12-03T09:31:57Z</time>
      </trkpt>
      <trkpt lat="42.96349" lon="0.03776">
        <ele>1998</ele>
        <time>2021-12-03T09:32:31Z</time>
      </trkpt>
      <trkpt lat="42.96349" lon="0.03778">
        <ele>1998</ele>
        <time>2021-12-03T09:33:06Z</time>
      </trkpt>
      <trkpt lat="42.96349" lon="0.03778">
        <ele>1999</ele>
        <time>2021-12-03T09:33:44Z</time>
      </trkpt>
      <trkpt lat="42.96348" lon="0.03776">
        <ele>1999</ele>
        <time>2021-12-03T09:34:16Z</time>
      </trkpt>
      <trkpt lat="42.96349" lon="0.03777">
        <ele>1999</ele>
        <time>2021-12-03T09:34:43Z</time>
      </trkpt>
      <trkpt lat="42.96351" lon="0.03777">
        <ele>1998</ele>
        <time>2021-12-03T09:35:11Z</time>
      </trkpt>
      <trkpt lat="42.96351" lon="0.03778">
        <ele>1998</ele>
        <time>2021-12-03T09:35:33Z</time>
      </trkpt>
      <trkpt lat="42.9635" lon="0.03778">
        <ele>1998</ele>
        <time>2021-12-03T09:35:50Z</time>
      </trkpt>
      <trkpt lat="42.9635" lon="0.03778">
        <ele>1999</ele>
        <time>2021-12-03T09:36:18Z</time>
      </trkpt>
      <trkpt lat="42.96347" lon="0.03776">
        <ele>2001</ele>
        <time>2021-12-03T09:36:39Z</time>
      </trkpt>
      <trkpt lat="42.96348" lon="0.03775">
        <ele>1999</ele>
        <time>2021-12-03T09:36:42Z</time>
      </trkpt>
      <trkpt lat="42.96348" lon="0.03776">
        <ele>1999</ele>
        <time>2021-12-03T09:37:16Z</time>
      </trkpt>
      <trkpt lat="42.96348" lon="0.03776">
        <ele>1998</ele>
        <time>2021-12-03T09:37:54Z</time>
      </trkpt>
      <trkpt lat="42.96348" lon="0.03776">
        <ele>1999</ele>
        <time>2021-12-03T09:38:16Z</time>
      </trkpt>
      <trkpt lat="42.9635" lon="0.03777">
        <ele>2001</ele>
        <time>2021-12-03T09:38:19Z</time>
      </trkpt>
      <trkpt lat="42.9635" lon="0.03777">
        <ele>2001</ele>
        <time>2021-12-03T09:38:20Z</time>
      </trkpt>
      <trkpt lat="42.96351" lon="0.03778">
        <ele>2001</ele>
        <time>2021-12-03T09:38:37Z</time>
      </trkpt>
      <trkpt lat="42.96351" lon="0.03778">
        <ele>2001</ele>
        <time>2021-12-03T09:38:54Z</time>
      </trkpt>
      <trkpt lat="42.9635" lon="0.03778">
        <ele>2001</ele>
        <time>2021-12-03T09:39:12Z</time>
      </trkpt>
      <trkpt lat="42.96348" lon="0.03779">
        <ele>2002</ele>
        <time>2021-12-03T09:39:30Z</time>
      </trkpt>
      <trkpt lat="42.96348" lon="0.03778">
        <ele>2001</ele>
        <time>2021-12-03T09:39:41Z</time>
      </trkpt>
      <trkpt lat="42.9635" lon="0.03778">
        <ele>2001</ele>
        <time>2021-12-03T09:40:03Z</time>
      </trkpt>
      <trkpt lat="42.96349" lon="0.03779">
        <ele>2000</ele>
        <time>2021-12-03T09:40:23Z</time>
      </trkpt>
      <trkpt lat="42.96348" lon="0.03778">
        <ele>2000</ele>
        <time>2021-12-03T09:40:41Z</time>
      </trkpt>
      <trkpt lat="42.96348" lon="0.03775">
        <ele>1999</ele>
        <time>2021-12-03T09:41:04Z</time>
      </trkpt>
      <trkpt lat="42.96348" lon="0.03765">
        <ele>1996</ele>
        <time>2021-12-03T09:41:09Z</time>
      </trkpt>
      <trkpt lat="42.96363" lon="0.03765">
        <ele>1995</ele>
        <time>2021-12-03T09:41:19Z</time>
      </trkpt>
      <trkpt lat="42.96369" lon="0.03765">
        <ele>1993</ele>
        <time>2021-12-03T09:41:22Z</time>
      </trkpt>
      <trkpt lat="42.96369" lon="0.03761">
        <ele>1994</ele>
        <time>2021-12-03T09:41:24Z</time>
      </trkpt>
      <trkpt lat="42.96365" lon="0.03757">
        <ele>1991</ele>
        <time>2021-12-03T09:41:28Z</time>
      </trkpt>
      <trkpt lat="42.96365" lon="0.03758">
        <ele>1991</ele>
        <time>2021-12-03T09:41:29Z</time>
      </trkpt>
      <trkpt lat="42.96366" lon="0.03756">
        <ele>1991</ele>
        <time>2021-12-03T09:41:49Z</time>
      </trkpt>
      <trkpt lat="42.96364" lon="0.03756">
        <ele>1990</ele>
        <time>2021-12-03T09:42:07Z</time>
      </trkpt>
      <trkpt lat="42.96366" lon="0.03755">
        <ele>1990</ele>
        <time>2021-12-03T09:42:34Z</time>
      </trkpt>
      <trkpt lat="42.96366" lon="0.03755">
        <ele>1988</ele>
        <time>2021-12-03T09:42:54Z</time>
      </trkpt>
      <trkpt lat="42.96365" lon="0.03754">
        <ele>1990</ele>
        <time>2021-12-03T09:43:15Z</time>
      </trkpt>
      <trkpt lat="42.96365" lon="0.03753">
        <ele>1990</ele>
        <time>2021-12-03T09:43:33Z</time>
      </trkpt>
      <trkpt lat="42.96362" lon="0.03737">
        <ele>1985</ele>
        <time>2021-12-03T09:43:38Z</time>
      </trkpt>
      <trkpt lat="42.96373" lon="0.03732">
        <ele>1980</ele>
        <time>2021-12-03T09:43:42Z</time>
      </trkpt>
      <trkpt lat="42.96373" lon="0.03729">
        <ele>1981</ele>
        <time>2021-12-03T09:43:43Z</time>
      </trkpt>
      <trkpt lat="42.96376" lon="0.03723">
        <ele>1977</ele>
        <time>2021-12-03T09:43:45Z</time>
      </trkpt>
      <trkpt lat="42.96378" lon="0.03718">
        <ele>1974</ele>
        <time>2021-12-03T09:43:50Z</time>
      </trkpt>
      <trkpt lat="42.96378" lon="0.03717">
        <ele>1974</ele>
        <time>2021-12-03T09:43:51Z</time>
      </trkpt>
      <trkpt lat="42.96377" lon="0.03717">
        <ele>1974</ele>
        <time>2021-12-03T09:43:52Z</time>
      </trkpt>
      <trkpt lat="42.96379" lon="0.03703">
        <ele>1969</ele>
        <time>2021-12-03T09:43:57Z</time>
      </trkpt>
      <trkpt lat="42.96383" lon="0.03698">
        <ele>1968</ele>
        <time>2021-12-03T09:43:59Z</time>
      </trkpt>
      <trkpt lat="42.9638" lon="0.03691">
        <ele>1964</ele>
        <time>2021-12-03T09:44:01Z</time>
      </trkpt>
      <trkpt lat="42.96384" lon="0.03685">
        <ele>1962</ele>
        <time>2021-12-03T09:44:03Z</time>
      </trkpt>
      <trkpt lat="42.96389" lon="0.03677">
        <ele>1960</ele>
        <time>2021-12-03T09:44:06Z</time>
      </trkpt>
      <trkpt lat="42.96398" lon="0.0366">
        <ele>1950</ele>
        <time>2021-12-03T09:44:11Z</time>
      </trkpt>
      <trkpt lat="42.96399" lon="0.03656">
        <ele>1950</ele>
        <time>2021-12-03T09:44:12Z</time>
      </trkpt>
      <trkpt lat="42.96399" lon="0.03647">
        <ele>1946</ele>
        <time>2021-12-03T09:44:14Z</time>
      </trkpt>
      <trkpt lat="42.96406" lon="0.03626">
        <ele>1937</ele>
        <time>2021-12-03T09:44:19Z</time>
      </trkpt>
      <trkpt lat="42.9641" lon="0.03614">
        <ele>1932</ele>
        <time>2021-12-03T09:44:22Z</time>
      </trkpt>
      <trkpt lat="42.9641" lon="0.0361">
        <ele>1933</ele>
        <time>2021-12-03T09:44:23Z</time>
      </trkpt>
      <trkpt lat="42.96412" lon="0.03602">
        <ele>1928</ele>
        <time>2021-12-03T09:44:25Z</time>
      </trkpt>
      <trkpt lat="42.96416" lon="0.03587">
        <ele>1924</ele>
        <time>2021-12-03T09:44:28Z</time>
      </trkpt>
      <trkpt lat="42.9642" lon="0.03579">
        <ele>1920</ele>
        <time>2021-12-03T09:44:30Z</time>
      </trkpt>
      <trkpt lat="42.96421" lon="0.03566">
        <ele>1915</ele>
        <time>2021-12-03T09:44:33Z</time>
      </trkpt>
      <trkpt lat="42.9642" lon="0.03563">
        <ele>1915</ele>
        <time>2021-12-03T09:44:34Z</time>
      </trkpt>
      <trkpt lat="42.96421" lon="0.03555">
        <ele>1911</ele>
        <time>2021-12-03T09:44:36Z</time>
      </trkpt>
      <trkpt lat="42.96424" lon="0.03545">
        <ele>1907</ele>
        <time>2021-12-03T09:44:38Z</time>
      </trkpt>
      <trkpt lat="42.96427" lon="0.03541">
        <ele>1905</ele>
        <time>2021-12-03T09:44:39Z</time>
      </trkpt>
      <trkpt lat="42.96432" lon="0.03529">
        <ele>1902</ele>
        <time>2021-12-03T09:44:42Z</time>
      </trkpt>
      <trkpt lat="42.9643" lon="0.03524">
        <ele>1899</ele>
        <time>2021-12-03T09:44:43Z</time>
      </trkpt>
      <trkpt lat="42.96431" lon="0.03519">
        <ele>1895</ele>
        <time>2021-12-03T09:44:44Z</time>
      </trkpt>
      <trkpt lat="42.96438" lon="0.03512">
        <ele>1892</ele>
        <time>2021-12-03T09:44:46Z</time>
      </trkpt>
      <trkpt lat="42.96454" lon="0.03509">
        <ele>1891</ele>
        <time>2021-12-03T09:44:55Z</time>
      </trkpt>
      <trkpt lat="42.96452" lon="0.0351">
        <ele>1890</ele>
        <time>2021-12-03T09:45:09Z</time>
      </trkpt>
      <trkpt lat="42.96452" lon="0.03511">
        <ele>1890</ele>
        <time>2021-12-03T09:45:23Z</time>
      </trkpt>
      <trkpt lat="42.96452" lon="0.03504">
        <ele>1891</ele>
        <time>2021-12-03T09:45:44Z</time>
      </trkpt>
      <trkpt lat="42.96452" lon="0.03505">
        <ele>1891</ele>
        <time>2021-12-03T09:45:52Z</time>
      </trkpt>
      <trkpt lat="42.96455" lon="0.03501">
        <ele>1889</ele>
        <time>2021-12-03T09:46:00Z</time>
      </trkpt>
      <trkpt lat="42.96439" lon="0.03493">
        <ele>1885</ele>
        <time>2021-12-03T09:46:07Z</time>
      </trkpt>
      <trkpt lat="42.96437" lon="0.03483">
        <ele>1879</ele>
        <time>2021-12-03T09:46:10Z</time>
      </trkpt>
      <trkpt lat="42.96436" lon="0.03472">
        <ele>1875</ele>
        <time>2021-12-03T09:46:13Z</time>
      </trkpt>
      <trkpt lat="42.96433" lon="0.03458">
        <ele>1870</ele>
        <time>2021-12-03T09:46:17Z</time>
      </trkpt>
      <trkpt lat="42.96434" lon="0.03458">
        <ele>1870</ele>
        <time>2021-12-03T09:46:18Z</time>
      </trkpt>
      <trkpt lat="42.96436" lon="0.03458">
        <ele>1871</ele>
        <time>2021-12-03T09:46:29Z</time>
      </trkpt>
      <trkpt lat="42.96429" lon="0.03452">
        <ele>1869</ele>
        <time>2021-12-03T09:46:38Z</time>
      </trkpt>
      <trkpt lat="42.9642" lon="0.03444">
        <ele>1867</ele>
        <time>2021-12-03T09:46:51Z</time>
      </trkpt>
      <trkpt lat="42.96406" lon="0.03429">
        <ele>1866</ele>
        <time>2021-12-03T09:47:05Z</time>
      </trkpt>
      <trkpt lat="42.96397" lon="0.03422">
        <ele>1863</ele>
        <time>2021-12-03T09:47:10Z</time>
      </trkpt>
      <trkpt lat="42.96397" lon="0.03423">
        <ele>1863</ele>
        <time>2021-12-03T09:47:11Z</time>
      </trkpt>
      <trkpt lat="42.96396" lon="0.03422">
        <ele>1864</ele>
        <time>2021-12-03T09:47:21Z</time>
      </trkpt>
      <trkpt lat="42.9639" lon="0.03415">
        <ele>1863</ele>
        <time>2021-12-03T09:47:25Z</time>
      </trkpt>
      <trkpt lat="42.96383" lon="0.03404">
        <ele>1858</ele>
        <time>2021-12-03T09:47:29Z</time>
      </trkpt>
      <trkpt lat="42.96374" lon="0.03388">
        <ele>1850</ele>
        <time>2021-12-03T09:47:34Z</time>
      </trkpt>
      <trkpt lat="42.96374" lon="0.03384">
        <ele>1845</ele>
        <time>2021-12-03T09:47:36Z</time>
      </trkpt>
      <trkpt lat="42.96367" lon="0.03374">
        <ele>1842</ele>
        <time>2021-12-03T09:47:40Z</time>
      </trkpt>
      <trkpt lat="42.96363" lon="0.03362">
        <ele>1836</ele>
        <time>2021-12-03T09:47:43Z</time>
      </trkpt>
      <trkpt lat="42.96367" lon="0.03349">
        <ele>1832</ele>
        <time>2021-12-03T09:47:46Z</time>
      </trkpt>
      <trkpt lat="42.9637" lon="0.03341">
        <ele>1828</ele>
        <time>2021-12-03T09:47:49Z</time>
      </trkpt>
      <trkpt lat="42.96374" lon="0.0333">
        <ele>1824</ele>
        <time>2021-12-03T09:47:52Z</time>
      </trkpt>
      <trkpt lat="42.96378" lon="0.03316">
        <ele>1820</ele>
        <time>2021-12-03T09:47:55Z</time>
      </trkpt>
      <trkpt lat="42.96383" lon="0.03309">
        <ele>1816</ele>
        <time>2021-12-03T09:47:57Z</time>
      </trkpt>
      <trkpt lat="42.96387" lon="0.03301">
        <ele>1812</ele>
        <time>2021-12-03T09:47:59Z</time>
      </trkpt>
      <trkpt lat="42.96385" lon="0.03293">
        <ele>1810</ele>
        <time>2021-12-03T09:48:02Z</time>
      </trkpt>
      <trkpt lat="42.96389" lon="0.03288">
        <ele>1806</ele>
        <time>2021-12-03T09:48:05Z</time>
      </trkpt>
      <trkpt lat="42.96391" lon="0.03288">
        <ele>1808</ele>
        <time>2021-12-03T09:48:09Z</time>
      </trkpt>
      <trkpt lat="42.96394" lon="0.0329">
        <ele>1807</ele>
        <time>2021-12-03T09:48:34Z</time>
      </trkpt>
      <trkpt lat="42.96392" lon="0.03288">
        <ele>1807</ele>
        <time>2021-12-03T09:49:01Z</time>
      </trkpt>
      <trkpt lat="42.96403" lon="0.03286">
        <ele>1805</ele>
        <time>2021-12-03T09:49:15Z</time>
      </trkpt>
      <trkpt lat="42.96406" lon="0.03278">
        <ele>1800</ele>
        <time>2021-12-03T09:49:18Z</time>
      </trkpt>
      <trkpt lat="42.96409" lon="0.03266">
        <ele>1795</ele>
        <time>2021-12-03T09:49:21Z</time>
      </trkpt>
      <trkpt lat="42.9641" lon="0.03261">
        <ele>1792</ele>
        <time>2021-12-03T09:49:22Z</time>
      </trkpt>
      <trkpt lat="42.96415" lon="0.03249">
        <ele>1785</ele>
        <time>2021-12-03T09:49:25Z</time>
      </trkpt>
      <trkpt lat="42.96417" lon="0.03238">
        <ele>1780</ele>
        <time>2021-12-03T09:49:28Z</time>
      </trkpt>
      <trkpt lat="42.96419" lon="0.03225">
        <ele>1776</ele>
        <time>2021-12-03T09:49:31Z</time>
      </trkpt>
      <trkpt lat="42.96419" lon="0.03209">
        <ele>1773</ele>
        <time>2021-12-03T09:49:35Z</time>
      </trkpt>
      <trkpt lat="42.96419" lon="0.03199">
        <ele>1769</ele>
        <time>2021-12-03T09:49:37Z</time>
      </trkpt>
      <trkpt lat="42.96422" lon="0.03186">
        <ele>1766</ele>
        <time>2021-12-03T09:49:40Z</time>
      </trkpt>
      <trkpt lat="42.96424" lon="0.03176">
        <ele>1763</ele>
        <time>2021-12-03T09:49:42Z</time>
      </trkpt>
      <trkpt lat="42.96425" lon="0.03165">
        <ele>1760</ele>
        <time>2021-12-03T09:49:47Z</time>
      </trkpt>
      <trkpt lat="42.96424" lon="0.03167">
        <ele>1761</ele>
        <time>2021-12-03T09:50:04Z</time>
      </trkpt>
      <trkpt lat="42.96423" lon="0.03167">
        <ele>1761</ele>
        <time>2021-12-03T09:50:17Z</time>
      </trkpt>
      <trkpt lat="42.96429" lon="0.0316">
        <ele>1758</ele>
        <time>2021-12-03T09:50:22Z</time>
      </trkpt>
      <trkpt lat="42.9644" lon="0.03163">
        <ele>1752</ele>
        <time>2021-12-03T09:50:26Z</time>
      </trkpt>
      <trkpt lat="42.96446" lon="0.03159">
        <ele>1749</ele>
        <time>2021-12-03T09:50:28Z</time>
      </trkpt>
      <trkpt lat="42.96454" lon="0.03156">
        <ele>1745</ele>
        <time>2021-12-03T09:50:30Z</time>
      </trkpt>
      <trkpt lat="42.96461" lon="0.03148">
        <ele>1740</ele>
        <time>2021-12-03T09:50:32Z</time>
      </trkpt>
      <trkpt lat="42.96465" lon="0.03144">
        <ele>1738</ele>
        <time>2021-12-03T09:50:33Z</time>
      </trkpt>
      <trkpt lat="42.96473" lon="0.03134">
        <ele>1733</ele>
        <time>2021-12-03T09:50:35Z</time>
      </trkpt>
      <trkpt lat="42.96487" lon="0.03101">
        <ele>1728</ele>
        <time>2021-12-03T09:50:41Z</time>
      </trkpt>
      <trkpt lat="42.96491" lon="0.03094">
        <ele>1725</ele>
        <time>2021-12-03T09:50:43Z</time>
      </trkpt>
      <trkpt lat="42.96497" lon="0.03068">
        <ele>1724</ele>
        <time>2021-12-03T09:50:48Z</time>
      </trkpt>
      <trkpt lat="42.96495" lon="0.03042">
        <ele>1720</ele>
        <time>2021-12-03T09:50:55Z</time>
      </trkpt>
      <trkpt lat="42.96497" lon="0.03039">
        <ele>1720</ele>
        <time>2021-12-03T09:51:06Z</time>
      </trkpt>
      <trkpt lat="42.96496" lon="0.03035">
        <ele>1720</ele>
        <time>2021-12-03T09:51:39Z</time>
      </trkpt>
      <trkpt lat="42.9649" lon="0.03022">
        <ele>1717</ele>
        <time>2021-12-03T09:51:44Z</time>
      </trkpt>
      <trkpt lat="42.96492" lon="0.03013">
        <ele>1713</ele>
        <time>2021-12-03T09:51:48Z</time>
      </trkpt>
      <trkpt lat="42.96493" lon="0.02999">
        <ele>1707</ele>
        <time>2021-12-03T09:51:52Z</time>
      </trkpt>
      <trkpt lat="42.96496" lon="0.02996">
        <ele>1706</ele>
        <time>2021-12-03T09:51:53Z</time>
      </trkpt>
      <trkpt lat="42.96502" lon="0.02976">
        <ele>1698</ele>
        <time>2021-12-03T09:51:57Z</time>
      </trkpt>
      <trkpt lat="42.96504" lon="0.02965">
        <ele>1693</ele>
        <time>2021-12-03T09:51:59Z</time>
      </trkpt>
      <trkpt lat="42.96504" lon="0.02955">
        <ele>1691</ele>
        <time>2021-12-03T09:52:01Z</time>
      </trkpt>
      <trkpt lat="42.96505" lon="0.02943">
        <ele>1692</ele>
        <time>2021-12-03T09:52:11Z</time>
      </trkpt>
      <trkpt lat="42.96509" lon="0.0293">
        <ele>1692</ele>
        <time>2021-12-03T09:52:21Z</time>
      </trkpt>
      <trkpt lat="42.96515" lon="0.02917">
        <ele>1692</ele>
        <time>2021-12-03T09:52:27Z</time>
      </trkpt>
      <trkpt lat="42.96534" lon="0.02891">
        <ele>1686</ele>
        <time>2021-12-03T09:52:32Z</time>
      </trkpt>
      <trkpt lat="42.96545" lon="0.02867">
        <ele>1682</ele>
        <time>2021-12-03T09:52:35Z</time>
      </trkpt>
      <trkpt lat="42.96548" lon="0.02859">
        <ele>1681</ele>
        <time>2021-12-03T09:52:36Z</time>
      </trkpt>
      <trkpt lat="42.96555" lon="0.02836">
        <ele>1678</ele>
        <time>2021-12-03T09:52:40Z</time>
      </trkpt>
      <trkpt lat="42.96557" lon="0.02827">
        <ele>1675</ele>
        <time>2021-12-03T09:52:41Z</time>
      </trkpt>
      <trkpt lat="42.96562" lon="0.02813">
        <ele>1674</ele>
        <time>2021-12-03T09:52:43Z</time>
      </trkpt>
      <trkpt lat="42.96571" lon="0.02798">
        <ele>1670</ele>
        <time>2021-12-03T09:52:46Z</time>
      </trkpt>
      <trkpt lat="42.96581" lon="0.02775">
        <ele>1669</ele>
        <time>2021-12-03T09:52:52Z</time>
      </trkpt>
      <trkpt lat="42.96587" lon="0.02763">
        <ele>1665</ele>
        <time>2021-12-03T09:52:55Z</time>
      </trkpt>
      <trkpt lat="42.96588" lon="0.02762">
        <ele>1666</ele>
        <time>2021-12-03T09:52:56Z</time>
      </trkpt>
      <trkpt lat="42.96588" lon="0.02789">
        <ele>1665</ele>
        <time>2021-12-03T09:53:06Z</time>
      </trkpt>
      <trkpt lat="42.96587" lon="0.02804">
        <ele>1666</ele>
        <time>2021-12-03T09:53:21Z</time>
      </trkpt>
      <trkpt lat="42.96587" lon="0.02804">
        <ele>1666</ele>
        <time>2021-12-03T09:53:41Z</time>
      </trkpt>
      <trkpt lat="42.96595" lon="0.02802">
        <ele>1662</ele>
        <time>2021-12-03T09:53:46Z</time>
      </trkpt>
      <trkpt lat="42.966" lon="0.02798">
        <ele>1659</ele>
        <time>2021-12-03T09:53:48Z</time>
      </trkpt>
      <trkpt lat="42.96605" lon="0.0279">
        <ele>1655</ele>
        <time>2021-12-03T09:53:50Z</time>
      </trkpt>
      <trkpt lat="42.96611" lon="0.02782">
        <ele>1651</ele>
        <time>2021-12-03T09:53:52Z</time>
      </trkpt>
      <trkpt lat="42.96613" lon="0.02771">
        <ele>1648</ele>
        <time>2021-12-03T09:53:54Z</time>
      </trkpt>
      <trkpt lat="42.96615" lon="0.0276">
        <ele>1648</ele>
        <time>2021-12-03T09:53:57Z</time>
      </trkpt>
      <trkpt lat="42.96622" lon="0.02726">
        <ele>1643</ele>
        <time>2021-12-03T09:54:06Z</time>
      </trkpt>
      <trkpt lat="42.96628" lon="0.02717">
        <ele>1643</ele>
        <time>2021-12-03T09:54:08Z</time>
      </trkpt>
      <trkpt lat="42.96631" lon="0.02706">
        <ele>1642</ele>
        <time>2021-12-03T09:54:10Z</time>
      </trkpt>
      <trkpt lat="42.96634" lon="0.0269">
        <ele>1639</ele>
        <time>2021-12-03T09:54:13Z</time>
      </trkpt>
      <trkpt lat="42.96639" lon="0.02673">
        <ele>1633</ele>
        <time>2021-12-03T09:54:16Z</time>
      </trkpt>
      <trkpt lat="42.96641" lon="0.02666">
        <ele>1631</ele>
        <time>2021-12-03T09:54:17Z</time>
      </trkpt>
      <trkpt lat="42.96649" lon="0.02645">
        <ele>1626</ele>
        <time>2021-12-03T09:54:20Z</time>
      </trkpt>
      <trkpt lat="42.96652" lon="0.02637">
        <ele>1624</ele>
        <time>2021-12-03T09:54:21Z</time>
      </trkpt>
      <trkpt lat="42.96656" lon="0.0263">
        <ele>1623</ele>
        <time>2021-12-03T09:54:22Z</time>
      </trkpt>
      <trkpt lat="42.96659" lon="0.02624">
        <ele>1622</ele>
        <time>2021-12-03T09:54:23Z</time>
      </trkpt>
      <trkpt lat="42.96666" lon="0.02615">
        <ele>1621</ele>
        <time>2021-12-03T09:54:25Z</time>
      </trkpt>
      <trkpt lat="42.96681" lon="0.02588">
        <ele>1619</ele>
        <time>2021-12-03T09:54:33Z</time>
      </trkpt>
      <trkpt lat="42.96692" lon="0.02549">
        <ele>1617</ele>
        <time>2021-12-03T09:54:45Z</time>
      </trkpt>
      <trkpt lat="42.96698" lon="0.02523">
        <ele>1615</ele>
        <time>2021-12-03T09:54:50Z</time>
      </trkpt>
      <trkpt lat="42.96701" lon="0.02511">
        <ele>1614</ele>
        <time>2021-12-03T09:54:52Z</time>
      </trkpt>
      <trkpt lat="42.96714" lon="0.0246">
        <ele>1611</ele>
        <time>2021-12-03T09:55:02Z</time>
      </trkpt>
      <trkpt lat="42.96716" lon="0.02446">
        <ele>1609</ele>
        <time>2021-12-03T09:55:04Z</time>
      </trkpt>
      <trkpt lat="42.96718" lon="0.02433">
        <ele>1607</ele>
        <time>2021-12-03T09:55:06Z</time>
      </trkpt>
      <trkpt lat="42.96722" lon="0.02407">
        <ele>1604</ele>
        <time>2021-12-03T09:55:10Z</time>
      </trkpt>
      <trkpt lat="42.96723" lon="0.024">
        <ele>1603</ele>
        <time>2021-12-03T09:55:11Z</time>
      </trkpt>
      <trkpt lat="42.96726" lon="0.02373">
        <ele>1601</ele>
        <time>2021-12-03T09:55:15Z</time>
      </trkpt>
      <trkpt lat="42.96728" lon="0.02364">
        <ele>1599</ele>
        <time>2021-12-03T09:55:18Z</time>
      </trkpt>
      <trkpt lat="42.96729" lon="0.02351">
        <ele>1598</ele>
        <time>2021-12-03T09:55:22Z</time>
      </trkpt>
      <trkpt lat="42.96729" lon="0.02324">
        <ele>1596</ele>
        <time>2021-12-03T09:55:33Z</time>
      </trkpt>
      <trkpt lat="42.96727" lon="0.02318">
        <ele>1596</ele>
        <time>2021-12-03T09:55:45Z</time>
      </trkpt>
      <trkpt lat="42.96729" lon="0.02307">
        <ele>1595</ele>
        <time>2021-12-03T09:55:49Z</time>
      </trkpt>
      <trkpt lat="42.96731" lon="0.02292">
        <ele>1596</ele>
        <time>2021-12-03T09:56:02Z</time>
      </trkpt>
      <trkpt lat="42.96733" lon="0.02283">
        <ele>1597</ele>
        <time>2021-12-03T09:56:15Z</time>
      </trkpt>
      <trkpt lat="42.96734" lon="0.02268">
        <ele>1594</ele>
        <time>2021-12-03T09:56:19Z</time>
      </trkpt>
      <trkpt lat="42.96738" lon="0.02242">
        <ele>1593</ele>
        <time>2021-12-03T09:56:28Z</time>
      </trkpt>
      <trkpt lat="42.96739" lon="0.02238">
        <ele>1594</ele>
        <time>2021-12-03T09:56:41Z</time>
      </trkpt>
      <trkpt lat="42.9674" lon="0.02233">
        <ele>1594</ele>
        <time>2021-12-03T09:56:52Z</time>
      </trkpt>
      <trkpt lat="42.96741" lon="0.02231">
        <ele>1593</ele>
        <time>2021-12-03T09:57:07Z</time>
      </trkpt>
      <trkpt lat="42.96741" lon="0.02231">
        <ele>1593</ele>
        <time>2021-12-03T09:57:20Z</time>
      </trkpt>
      <trkpt lat="42.96742" lon="0.02229">
        <ele>1594</ele>
        <time>2021-12-03T09:57:43Z</time>
      </trkpt>
      <trkpt lat="42.9674" lon="0.02231">
        <ele>1594</ele>
        <time>2021-12-03T09:57:46Z</time>
      </trkpt>
      <trkpt lat="42.96742" lon="0.02229">
        <ele>1593</ele>
        <time>2021-12-03T09:57:59Z</time>
      </trkpt>
      <trkpt lat="42.96743" lon="0.02233">
        <ele>1594</ele>
        <time>2021-12-03T09:58:17Z</time>
      </trkpt>
      <trkpt lat="42.96743" lon="0.02237">
        <ele>1593</ele>
        <time>2021-12-03T09:58:54Z</time>
      </trkpt>
      <trkpt lat="42.96745" lon="0.02239">
        <ele>1594</ele>
        <time>2021-12-03T09:59:24Z</time>
      </trkpt>
      <trkpt lat="42.96743" lon="0.02237">
        <ele>1593</ele>
        <time>2021-12-03T09:59:55Z</time>
      </trkpt>
      <trkpt lat="42.96745" lon="0.02237">
        <ele>1593</ele>
        <time>2021-12-03T10:00:19Z</time>
      </trkpt>
      <trkpt lat="42.96745" lon="0.02236">
        <ele>1594</ele>
        <time>2021-12-03T10:00:51Z</time>
      </trkpt>
      <trkpt lat="42.96743" lon="0.02237">
        <ele>1593</ele>
        <time>2021-12-03T10:01:24Z</time>
      </trkpt>
      <trkpt lat="42.96744" lon="0.02236">
        <ele>1594</ele>
        <time>2021-12-03T10:01:59Z</time>
      </trkpt>
      <trkpt lat="42.96745" lon="0.02235">
        <ele>1594</ele>
        <time>2021-12-03T10:02:24Z</time>
      </trkpt>
      <trkpt lat="42.96743" lon="0.02233">
        <ele>1593</ele>
        <time>2021-12-03T10:02:54Z</time>
      </trkpt>
      <trkpt lat="42.96742" lon="0.02232">
        <ele>1593</ele>
        <time>2021-12-03T10:03:25Z</time>
      </trkpt>
      <trkpt lat="42.96741" lon="0.02234">
        <ele>1593</ele>
        <time>2021-12-03T10:03:54Z</time>
      </trkpt>
      <trkpt lat="42.96741" lon="0.02237">
        <ele>1594</ele>
        <time>2021-12-03T10:04:17Z</time>
      </trkpt>
      <trkpt lat="42.96742" lon="0.02233">
        <ele>1594</ele>
        <time>2021-12-03T10:04:37Z</time>
      </trkpt>
      <trkpt lat="42.96745" lon="0.02233">
        <ele>1594</ele>
        <time>2021-12-03T10:05:05Z</time>
      </trkpt>
      <trkpt lat="42.96742" lon="0.02236">
        <ele>1594</ele>
        <time>2021-12-03T10:05:29Z</time>
      </trkpt>
      <trkpt lat="42.96742" lon="0.02237">
        <ele>1593</ele>
        <time>2021-12-03T10:06:01Z</time>
      </trkpt>
      <trkpt lat="42.96743" lon="0.02237">
        <ele>1593</ele>
        <time>2021-12-03T10:06:30Z</time>
      </trkpt>
      <trkpt lat="42.96745" lon="0.02235">
        <ele>1593</ele>
        <time>2021-12-03T10:07:01Z</time>
      </trkpt>
      <trkpt lat="42.96743" lon="0.02235">
        <ele>1594</ele>
        <time>2021-12-03T10:07:34Z</time>
      </trkpt>
      <trkpt lat="42.96743" lon="0.02237">
        <ele>1593</ele>
        <time>2021-12-03T10:08:05Z</time>
      </trkpt>
      <trkpt lat="42.96743" lon="0.02234">
        <ele>1594</ele>
        <time>2021-12-03T10:08:32Z</time>
      </trkpt>
      <trkpt lat="42.96744" lon="0.02235">
        <ele>1594</ele>
        <time>2021-12-03T10:09:01Z</time>
      </trkpt>
      <trkpt lat="42.96744" lon="0.02235">
        <ele>1593</ele>
        <time>2021-12-03T10:09:04Z</time>
      </trkpt>
      <trkpt lat="42.96744" lon="0.02238">
        <ele>1594</ele>
        <time>2021-12-03T10:09:15Z</time>
      </trkpt>
      <trkpt lat="42.96746" lon="0.02236">
        <ele>1594</ele>
        <time>2021-12-03T10:09:42Z</time>
      </trkpt>
      <trkpt lat="42.96744" lon="0.02239">
        <ele>1594</ele>
        <time>2021-12-03T10:10:02Z</time>
      </trkpt>
      <trkpt lat="42.96744" lon="0.02238">
        <ele>1593</ele>
        <time>2021-12-03T10:10:19Z</time>
      </trkpt>
      <trkpt lat="42.96745" lon="0.02234">
        <ele>1594</ele>
        <time>2021-12-03T10:10:37Z</time>
      </trkpt>
      <trkpt lat="42.9674" lon="0.02233">
        <ele>1594</ele>
        <time>2021-12-03T10:10:59Z</time>
      </trkpt>
      <trkpt lat="42.96742" lon="0.02234">
        <ele>1594</ele>
        <time>2021-12-03T10:11:20Z</time>
      </trkpt>
      <trkpt lat="42.96742" lon="0.02231">
        <ele>1594</ele>
        <time>2021-12-03T10:11:35Z</time>
      </trkpt>
      <trkpt lat="42.96739" lon="0.0223">
        <ele>1594</ele>
        <time>2021-12-03T10:12:00Z</time>
      </trkpt>
      <trkpt lat="42.96735" lon="0.02232">
        <ele>1594</ele>
        <time>2021-12-03T10:12:32Z</time>
      </trkpt>
      <trkpt lat="42.96741" lon="0.02229">
        <ele>1594</ele>
        <time>2021-12-03T10:12:57Z</time>
      </trkpt>
      <trkpt lat="42.96734" lon="0.02235">
        <ele>1594</ele>
        <time>2021-12-03T10:13:21Z</time>
      </trkpt>
      <trkpt lat="42.96732" lon="0.02226">
        <ele>1595</ele>
        <time>2021-12-03T10:13:32Z</time>
      </trkpt>
      <trkpt lat="42.96737" lon="0.02219">
        <ele>1595</ele>
        <time>2021-12-03T10:13:37Z</time>
      </trkpt>
      <trkpt lat="42.9675" lon="0.02204">
        <ele>1596</ele>
        <time>2021-12-03T10:13:51Z</time>
      </trkpt>
      <trkpt lat="42.96753" lon="0.02187">
        <ele>1596</ele>
        <time>2021-12-03T10:14:03Z</time>
      </trkpt>
      <trkpt lat="42.96753" lon="0.02179">
        <ele>1596</ele>
        <time>2021-12-03T10:14:08Z</time>
      </trkpt>
      <trkpt lat="42.96756" lon="0.02164">
        <ele>1597</ele>
        <time>2021-12-03T10:14:20Z</time>
      </trkpt>
      <trkpt lat="42.96759" lon="0.02155">
        <ele>1598</ele>
        <time>2021-12-03T10:14:28Z</time>
      </trkpt>
      <trkpt lat="42.96761" lon="0.02149">
        <ele>1598</ele>
        <time>2021-12-03T10:14:33Z</time>
      </trkpt>
      <trkpt lat="42.96768" lon="0.02132">
        <ele>1599</ele>
        <time>2021-12-03T10:14:46Z</time>
      </trkpt>
      <trkpt lat="42.96771" lon="0.02125">
        <ele>1599</ele>
        <time>2021-12-03T10:14:51Z</time>
      </trkpt>
      <trkpt lat="42.96777" lon="0.0211">
        <ele>1599</ele>
        <time>2021-12-03T10:15:04Z</time>
      </trkpt>
      <trkpt lat="42.96781" lon="0.021">
        <ele>1601</ele>
        <time>2021-12-03T10:15:14Z</time>
      </trkpt>
      <trkpt lat="42.96782" lon="0.02099">
        <ele>1601</ele>
        <time>2021-12-03T10:15:15Z</time>
      </trkpt>
      <trkpt lat="42.96786" lon="0.02092">
        <ele>1602</ele>
        <time>2021-12-03T10:15:26Z</time>
      </trkpt>
      <trkpt lat="42.96789" lon="0.02086">
        <ele>1603</ele>
        <time>2021-12-03T10:15:37Z</time>
      </trkpt>
      <trkpt lat="42.96794" lon="0.02073">
        <ele>1605</ele>
        <time>2021-12-03T10:15:50Z</time>
      </trkpt>
      <trkpt lat="42.96797" lon="0.02064">
        <ele>1606</ele>
        <time>2021-12-03T10:16:02Z</time>
      </trkpt>
      <trkpt lat="42.96798" lon="0.02062">
        <ele>1607</ele>
        <time>2021-12-03T10:16:04Z</time>
      </trkpt>
      <trkpt lat="42.96803" lon="0.0205">
        <ele>1609</ele>
        <time>2021-12-03T10:16:19Z</time>
      </trkpt>
      <trkpt lat="42.9681" lon="0.02037">
        <ele>1612</ele>
        <time>2021-12-03T10:16:34Z</time>
      </trkpt>
      <trkpt lat="42.96818" lon="0.02029">
        <ele>1614</ele>
        <time>2021-12-03T10:16:48Z</time>
      </trkpt>
      <trkpt lat="42.96821" lon="0.02021">
        <ele>1617</ele>
        <time>2021-12-03T10:17:01Z</time>
      </trkpt>
      <trkpt lat="42.96824" lon="0.0201">
        <ele>1619</ele>
        <time>2021-12-03T10:17:14Z</time>
      </trkpt>
      <trkpt lat="42.96825" lon="0.02009">
        <ele>1619</ele>
        <time>2021-12-03T10:17:17Z</time>
      </trkpt>
      <trkpt lat="42.96834" lon="0.02013">
        <ele>1621</ele>
        <time>2021-12-03T10:17:30Z</time>
      </trkpt>
      <trkpt lat="42.96838" lon="0.02013">
        <ele>1621</ele>
        <time>2021-12-03T10:17:36Z</time>
      </trkpt>
      <trkpt lat="42.96847" lon="0.02">
        <ele>1622</ele>
        <time>2021-12-03T10:17:48Z</time>
      </trkpt>
      <trkpt lat="42.9685" lon="0.01997">
        <ele>1620</ele>
        <time>2021-12-03T10:17:51Z</time>
      </trkpt>
      <trkpt lat="42.96857" lon="0.01988">
        <ele>1622</ele>
        <time>2021-12-03T10:18:00Z</time>
      </trkpt>
      <trkpt lat="42.96864" lon="0.01969">
        <ele>1621</ele>
        <time>2021-12-03T10:18:14Z</time>
      </trkpt>
      <trkpt lat="42.96869" lon="0.01953">
        <ele>1620</ele>
        <time>2021-12-03T10:18:26Z</time>
      </trkpt>
      <trkpt lat="42.9687" lon="0.01951">
        <ele>1619</ele>
        <time>2021-12-03T10:18:28Z</time>
      </trkpt>
      <trkpt lat="42.96875" lon="0.01938">
        <ele>1620</ele>
        <time>2021-12-03T10:18:41Z</time>
      </trkpt>
      <trkpt lat="42.96876" lon="0.01939">
        <ele>1620</ele>
        <time>2021-12-03T10:18:56Z</time>
      </trkpt>
      <trkpt lat="42.96876" lon="0.01937">
        <ele>1621</ele>
        <time>2021-12-03T10:19:18Z</time>
      </trkpt>
      <trkpt lat="42.96878" lon="0.0193">
        <ele>1620</ele>
        <time>2021-12-03T10:19:24Z</time>
      </trkpt>
      <trkpt lat="42.96884" lon="0.01915">
        <ele>1621</ele>
        <time>2021-12-03T10:19:37Z</time>
      </trkpt>
      <trkpt lat="42.96889" lon="0.01899">
        <ele>1623</ele>
        <time>2021-12-03T10:19:50Z</time>
      </trkpt>
      <trkpt lat="42.96897" lon="0.01885">
        <ele>1624</ele>
        <time>2021-12-03T10:20:02Z</time>
      </trkpt>
      <trkpt lat="42.96903" lon="0.01872">
        <ele>1624</ele>
        <time>2021-12-03T10:20:11Z</time>
      </trkpt>
      <trkpt lat="42.96912" lon="0.01859">
        <ele>1627</ele>
        <time>2021-12-03T10:20:23Z</time>
      </trkpt>
      <trkpt lat="42.9692" lon="0.0184">
        <ele>1626</ele>
        <time>2021-12-03T10:20:35Z</time>
      </trkpt>
      <trkpt lat="42.96928" lon="0.01823">
        <ele>1627</ele>
        <time>2021-12-03T10:20:47Z</time>
      </trkpt>
      <trkpt lat="42.96928" lon="0.01822">
        <ele>1626</ele>
        <time>2021-12-03T10:20:48Z</time>
      </trkpt>
      <trkpt lat="42.96935" lon="0.01804">
        <ele>1627</ele>
        <time>2021-12-03T10:21:01Z</time>
      </trkpt>
      <trkpt lat="42.96943" lon="0.01789">
        <ele>1628</ele>
        <time>2021-12-03T10:21:14Z</time>
      </trkpt>
      <trkpt lat="42.96951" lon="0.01775">
        <ele>1628</ele>
        <time>2021-12-03T10:21:24Z</time>
      </trkpt>
      <trkpt lat="42.96954" lon="0.01768">
        <ele>1628</ele>
        <time>2021-12-03T10:21:29Z</time>
      </trkpt>
      <trkpt lat="42.96963" lon="0.01752">
        <ele>1630</ele>
        <time>2021-12-03T10:21:42Z</time>
      </trkpt>
      <trkpt lat="42.96971" lon="0.01738">
        <ele>1630</ele>
        <time>2021-12-03T10:21:53Z</time>
      </trkpt>
      <trkpt lat="42.96979" lon="0.01721">
        <ele>1631</ele>
        <time>2021-12-03T10:22:07Z</time>
      </trkpt>
      <trkpt lat="42.96987" lon="0.01694">
        <ele>1629</ele>
        <time>2021-12-03T10:22:22Z</time>
      </trkpt>
      <trkpt lat="42.96992" lon="0.01682">
        <ele>1630</ele>
        <time>2021-12-03T10:22:32Z</time>
      </trkpt>
      <trkpt lat="42.96994" lon="0.0168">
        <ele>1631</ele>
        <time>2021-12-03T10:22:34Z</time>
      </trkpt>
      <trkpt lat="42.97" lon="0.01664">
        <ele>1632</ele>
        <time>2021-12-03T10:22:50Z</time>
      </trkpt>
      <trkpt lat="42.97003" lon="0.01659">
        <ele>1633</ele>
        <time>2021-12-03T10:22:55Z</time>
      </trkpt>
      <trkpt lat="42.97011" lon="0.01642">
        <ele>1633</ele>
        <time>2021-12-03T10:23:07Z</time>
      </trkpt>
      <trkpt lat="42.97025" lon="0.01612">
        <ele>1630</ele>
        <time>2021-12-03T10:23:21Z</time>
      </trkpt>
      <trkpt lat="42.97026" lon="0.0161">
        <ele>1631</ele>
        <time>2021-12-03T10:23:22Z</time>
      </trkpt>
      <trkpt lat="42.97036" lon="0.01594">
        <ele>1631</ele>
        <time>2021-12-03T10:23:34Z</time>
      </trkpt>
      <trkpt lat="42.97049" lon="0.01575">
        <ele>1631</ele>
        <time>2021-12-03T10:23:47Z</time>
      </trkpt>
      <trkpt lat="42.97054" lon="0.01566">
        <ele>1631</ele>
        <time>2021-12-03T10:23:53Z</time>
      </trkpt>
      <trkpt lat="42.97065" lon="0.01549">
        <ele>1630</ele>
        <time>2021-12-03T10:24:06Z</time>
      </trkpt>
      <trkpt lat="42.9707" lon="0.01536">
        <ele>1631</ele>
        <time>2021-12-03T10:24:19Z</time>
      </trkpt>
      <trkpt lat="42.97078" lon="0.01526">
        <ele>1633</ele>
        <time>2021-12-03T10:24:31Z</time>
      </trkpt>
      <trkpt lat="42.97083" lon="0.01517">
        <ele>1634</ele>
        <time>2021-12-03T10:24:44Z</time>
      </trkpt>
      <trkpt lat="42.97093" lon="0.01509">
        <ele>1636</ele>
        <time>2021-12-03T10:24:59Z</time>
      </trkpt>
      <trkpt lat="42.97098" lon="0.01505">
        <ele>1640</ele>
        <time>2021-12-03T10:25:11Z</time>
      </trkpt>
      <trkpt lat="42.97108" lon="0.015">
        <ele>1642</ele>
        <time>2021-12-03T10:25:28Z</time>
      </trkpt>
      <trkpt lat="42.97115" lon="0.01493">
        <ele>1643</ele>
        <time>2021-12-03T10:25:41Z</time>
      </trkpt>
      <trkpt lat="42.97126" lon="0.01483">
        <ele>1645</ele>
        <time>2021-12-03T10:25:56Z</time>
      </trkpt>
      <trkpt lat="42.97135" lon="0.01474">
        <ele>1644</ele>
        <time>2021-12-03T10:26:09Z</time>
      </trkpt>
      <trkpt lat="42.97137" lon="0.01472">
        <ele>1645</ele>
        <time>2021-12-03T10:26:13Z</time>
      </trkpt>
      <trkpt lat="42.9714" lon="0.01468">
        <ele>1645</ele>
        <time>2021-12-03T10:26:17Z</time>
      </trkpt>
      <trkpt lat="42.97142" lon="0.01466">
        <ele>1645</ele>
        <time>2021-12-03T10:26:20Z</time>
      </trkpt>
      <trkpt lat="42.97152" lon="0.01454">
        <ele>1644</ele>
        <time>2021-12-03T10:26:33Z</time>
      </trkpt>
      <trkpt lat="42.9716" lon="0.01441">
        <ele>1645</ele>
        <time>2021-12-03T10:26:45Z</time>
      </trkpt>
      <trkpt lat="42.97167" lon="0.01426">
        <ele>1643</ele>
        <time>2021-12-03T10:26:58Z</time>
      </trkpt>
      <trkpt lat="42.9717" lon="0.0142">
        <ele>1645</ele>
        <time>2021-12-03T10:27:05Z</time>
      </trkpt>
      <trkpt lat="42.97174" lon="0.0141">
        <ele>1645</ele>
        <time>2021-12-03T10:27:18Z</time>
      </trkpt>
      <trkpt lat="42.97176" lon="0.01407">
        <ele>1646</ele>
        <time>2021-12-03T10:27:31Z</time>
      </trkpt>
      <trkpt lat="42.97175" lon="0.01398">
        <ele>1647</ele>
        <time>2021-12-03T10:27:47Z</time>
      </trkpt>
      <trkpt lat="42.97172" lon="0.01395">
        <ele>1647</ele>
        <time>2021-12-03T10:27:52Z</time>
      </trkpt>
      <trkpt lat="42.97169" lon="0.01389">
        <ele>1646</ele>
        <time>2021-12-03T10:27:57Z</time>
      </trkpt>
      <trkpt lat="42.97158" lon="0.01378">
        <ele>1646</ele>
        <time>2021-12-03T10:28:11Z</time>
      </trkpt>
      <trkpt lat="42.97148" lon="0.0136">
        <ele>1647</ele>
        <time>2021-12-03T10:28:29Z</time>
      </trkpt>
      <trkpt lat="42.97139" lon="0.0135">
        <ele>1650</ele>
        <time>2021-12-03T10:28:44Z</time>
      </trkpt>
      <trkpt lat="42.9713" lon="0.01339">
        <ele>1651</ele>
        <time>2021-12-03T10:28:59Z</time>
      </trkpt>
      <trkpt lat="42.97129" lon="0.01338">
        <ele>1652</ele>
        <time>2021-12-03T10:29:00Z</time>
      </trkpt>
      <trkpt lat="42.97119" lon="0.01336">
        <ele>1652</ele>
        <time>2021-12-03T10:29:10Z</time>
      </trkpt>
      <trkpt lat="42.97111" lon="0.01341">
        <ele>1652</ele>
        <time>2021-12-03T10:29:20Z</time>
      </trkpt>
      <trkpt lat="42.97101" lon="0.01356">
        <ele>1652</ele>
        <time>2021-12-03T10:29:34Z</time>
      </trkpt>
      <trkpt lat="42.97089" lon="0.01366">
        <ele>1651</ele>
        <time>2021-12-03T10:29:48Z</time>
      </trkpt>
      <trkpt lat="42.97089" lon="0.01365">
        <ele>1652</ele>
        <time>2021-12-03T10:29:51Z</time>
      </trkpt>
      <trkpt lat="42.97087" lon="0.01359">
        <ele>1652</ele>
        <time>2021-12-03T10:29:56Z</time>
      </trkpt>
      <trkpt lat="42.97082" lon="0.01343">
        <ele>1653</ele>
        <time>2021-12-03T10:30:10Z</time>
      </trkpt>
      <trkpt lat="42.97079" lon="0.01331">
        <ele>1654</ele>
        <time>2021-12-03T10:30:25Z</time>
      </trkpt>
      <trkpt lat="42.97077" lon="0.01319">
        <ele>1656</ele>
        <time>2021-12-03T10:30:40Z</time>
      </trkpt>
      <trkpt lat="42.97074" lon="0.01305">
        <ele>1659</ele>
        <time>2021-12-03T10:30:57Z</time>
      </trkpt>
      <trkpt lat="42.97069" lon="0.01293">
        <ele>1661</ele>
        <time>2021-12-03T10:31:13Z</time>
      </trkpt>
      <trkpt lat="42.97063" lon="0.01286">
        <ele>1664</ele>
        <time>2021-12-03T10:31:27Z</time>
      </trkpt>
      <trkpt lat="42.97051" lon="0.01281">
        <ele>1667</ele>
        <time>2021-12-03T10:31:44Z</time>
      </trkpt>
      <trkpt lat="42.97046" lon="0.01266">
        <ele>1668</ele>
        <time>2021-12-03T10:32:00Z</time>
      </trkpt>
      <trkpt lat="42.97045" lon="0.01264">
        <ele>1668</ele>
        <time>2021-12-03T10:32:01Z</time>
      </trkpt>
      <trkpt lat="42.97037" lon="0.0125">
        <ele>1668</ele>
        <time>2021-12-03T10:32:15Z</time>
      </trkpt>
      <trkpt lat="42.97028" lon="0.01235">
        <ele>1669</ele>
        <time>2021-12-03T10:32:31Z</time>
      </trkpt>
      <trkpt lat="42.97023" lon="0.0122">
        <ele>1669</ele>
        <time>2021-12-03T10:32:46Z</time>
      </trkpt>
      <trkpt lat="42.97021" lon="0.01209">
        <ele>1671</ele>
        <time>2021-12-03T10:32:56Z</time>
      </trkpt>
      <trkpt lat="42.9702" lon="0.01206">
        <ele>1671</ele>
        <time>2021-12-03T10:32:59Z</time>
      </trkpt>
      <trkpt lat="42.97016" lon="0.01197">
        <ele>1674</ele>
        <time>2021-12-03T10:33:09Z</time>
      </trkpt>
      <trkpt lat="42.97014" lon="0.01195">
        <ele>1674</ele>
        <time>2021-12-03T10:33:13Z</time>
      </trkpt>
      <trkpt lat="42.97005" lon="0.01176">
        <ele>1674</ele>
        <time>2021-12-03T10:33:30Z</time>
      </trkpt>
      <trkpt lat="42.96997" lon="0.01159">
        <ele>1675</ele>
        <time>2021-12-03T10:33:46Z</time>
      </trkpt>
      <trkpt lat="42.96988" lon="0.01145">
        <ele>1675</ele>
        <time>2021-12-03T10:33:59Z</time>
      </trkpt>
      <trkpt lat="42.96978" lon="0.01127">
        <ele>1675</ele>
        <time>2021-12-03T10:34:15Z</time>
      </trkpt>
      <trkpt lat="42.96972" lon="0.01113">
        <ele>1676</ele>
        <time>2021-12-03T10:34:29Z</time>
      </trkpt>
      <trkpt lat="42.96963" lon="0.01097">
        <ele>1677</ele>
        <time>2021-12-03T10:34:45Z</time>
      </trkpt>
      <trkpt lat="42.96957" lon="0.01081">
        <ele>1678</ele>
        <time>2021-12-03T10:35:00Z</time>
      </trkpt>
      <trkpt lat="42.96955" lon="0.01073">
        <ele>1677</ele>
        <time>2021-12-03T10:35:13Z</time>
      </trkpt>
      <trkpt lat="42.96954" lon="0.01069">
        <ele>1677</ele>
        <time>2021-12-03T10:35:42Z</time>
      </trkpt>
      <trkpt lat="42.96954" lon="0.01069">
        <ele>1677</ele>
        <time>2021-12-03T10:35:55Z</time>
      </trkpt>
      <trkpt lat="42.96954" lon="0.01073">
        <ele>1678</ele>
        <time>2021-12-03T10:36:15Z</time>
      </trkpt>
      <trkpt lat="42.96954" lon="0.01071">
        <ele>1678</ele>
        <time>2021-12-03T10:36:35Z</time>
      </trkpt>
      <trkpt lat="42.96955" lon="0.01071">
        <ele>1678</ele>
        <time>2021-12-03T10:36:58Z</time>
      </trkpt>
      <trkpt lat="42.96955" lon="0.01071">
        <ele>1677</ele>
        <time>2021-12-03T10:37:20Z</time>
      </trkpt>
      <trkpt lat="42.96954" lon="0.01076">
        <ele>1678</ele>
        <time>2021-12-03T10:37:33Z</time>
      </trkpt>
      <trkpt lat="42.96952" lon="0.01076">
        <ele>1677</ele>
        <time>2021-12-03T10:37:46Z</time>
      </trkpt>
      <trkpt lat="42.96954" lon="0.01075">
        <ele>1678</ele>
        <time>2021-12-03T10:38:05Z</time>
      </trkpt>
      <trkpt lat="42.96952" lon="0.01075">
        <ele>1677</ele>
        <time>2021-12-03T10:38:36Z</time>
      </trkpt>
      <trkpt lat="42.96951" lon="0.01073">
        <ele>1677</ele>
        <time>2021-12-03T10:39:06Z</time>
      </trkpt>
      <trkpt lat="42.96953" lon="0.01076">
        <ele>1677</ele>
        <time>2021-12-03T10:39:43Z</time>
      </trkpt>
      <trkpt lat="42.96952" lon="0.01077">
        <ele>1677</ele>
        <time>2021-12-03T10:40:21Z</time>
      </trkpt>
      <trkpt lat="42.96953" lon="0.01076">
        <ele>1677</ele>
        <time>2021-12-03T10:40:53Z</time>
      </trkpt>
      <trkpt lat="42.96952" lon="0.01074">
        <ele>1677</ele>
        <time>2021-12-03T10:41:30Z</time>
      </trkpt>
      <trkpt lat="42.96952" lon="0.01075">
        <ele>1677</ele>
        <time>2021-12-03T10:42:08Z</time>
      </trkpt>
      <trkpt lat="42.96953" lon="0.01078">
        <ele>1678</ele>
        <time>2021-12-03T10:42:44Z</time>
      </trkpt>
      <trkpt lat="42.96953" lon="0.01076">
        <ele>1677</ele>
        <time>2021-12-03T10:43:20Z</time>
      </trkpt>
      <trkpt lat="42.96954" lon="0.01075">
        <ele>1678</ele>
        <time>2021-12-03T10:43:46Z</time>
      </trkpt>
      <trkpt lat="42.96953" lon="0.01073">
        <ele>1678</ele>
        <time>2021-12-03T10:44:02Z</time>
      </trkpt>
      <trkpt lat="42.96952" lon="0.01074">
        <ele>1678</ele>
        <time>2021-12-03T10:44:27Z</time>
      </trkpt>
      <trkpt lat="42.96954" lon="0.01074">
        <ele>1678</ele>
        <time>2021-12-03T10:44:47Z</time>
      </trkpt>
      <trkpt lat="42.96952" lon="0.01074">
        <ele>1679</ele>
        <time>2021-12-03T10:45:08Z</time>
      </trkpt>
      <trkpt lat="42.96952" lon="0.01077">
        <ele>1678</ele>
        <time>2021-12-03T10:45:34Z</time>
      </trkpt>
      <trkpt lat="42.96952" lon="0.01075">
        <ele>1679</ele>
        <time>2021-12-03T10:45:54Z</time>
      </trkpt>
      <trkpt lat="42.96954" lon="0.01075">
        <ele>1679</ele>
        <time>2021-12-03T10:46:09Z</time>
      </trkpt>
      <trkpt lat="42.96954" lon="0.01075">
        <ele>1678</ele>
        <time>2021-12-03T10:46:23Z</time>
      </trkpt>
      <trkpt lat="42.96955" lon="0.01072">
        <ele>1679</ele>
        <time>2021-12-03T10:46:41Z</time>
      </trkpt>
      <trkpt lat="42.9696" lon="0.01063">
        <ele>1677</ele>
        <time>2021-12-03T10:46:45Z</time>
      </trkpt>
      <trkpt lat="42.96973" lon="0.01051">
        <ele>1672</ele>
        <time>2021-12-03T10:46:49Z</time>
      </trkpt>
      <trkpt lat="42.96983" lon="0.01046">
        <ele>1668</ele>
        <time>2021-12-03T10:46:52Z</time>
      </trkpt>
      <trkpt lat="42.96992" lon="0.0104">
        <ele>1665</ele>
        <time>2021-12-03T10:46:55Z</time>
      </trkpt>
      <trkpt lat="42.97001" lon="0.01038">
        <ele>1660</ele>
        <time>2021-12-03T10:46:59Z</time>
      </trkpt>
      <trkpt lat="42.97002" lon="0.01031">
        <ele>1659</ele>
        <time>2021-12-03T10:47:01Z</time>
      </trkpt>
      <trkpt lat="42.97005" lon="0.01029">
        <ele>1658</ele>
        <time>2021-12-03T10:47:08Z</time>
      </trkpt>
      <trkpt lat="42.97006" lon="0.01031">
        <ele>1658</ele>
        <time>2021-12-03T10:47:28Z</time>
      </trkpt>
      <trkpt lat="42.97012" lon="0.0103">
        <ele>1656</ele>
        <time>2021-12-03T10:47:32Z</time>
      </trkpt>
      <trkpt lat="42.9702" lon="0.01023">
        <ele>1650</ele>
        <time>2021-12-03T10:47:36Z</time>
      </trkpt>
      <trkpt lat="42.97024" lon="0.01018">
        <ele>1647</ele>
        <time>2021-12-03T10:47:38Z</time>
      </trkpt>
      <trkpt lat="42.97028" lon="0.01015">
        <ele>1643</ele>
        <time>2021-12-03T10:47:40Z</time>
      </trkpt>
      <trkpt lat="42.97031" lon="0.01008">
        <ele>1639</ele>
        <time>2021-12-03T10:47:42Z</time>
      </trkpt>
      <trkpt lat="42.97036" lon="0.01003">
        <ele>1635</ele>
        <time>2021-12-03T10:47:44Z</time>
      </trkpt>
      <trkpt lat="42.97038" lon="0.01">
        <ele>1632</ele>
        <time>2021-12-03T10:47:45Z</time>
      </trkpt>
      <trkpt lat="42.97051" lon="0.00985">
        <ele>1625</ele>
        <time>2021-12-03T10:47:49Z</time>
      </trkpt>
      <trkpt lat="42.97062" lon="0.0097">
        <ele>1619</ele>
        <time>2021-12-03T10:47:53Z</time>
      </trkpt>
      <trkpt lat="42.97071" lon="0.00955">
        <ele>1615</ele>
        <time>2021-12-03T10:47:57Z</time>
      </trkpt>
      <trkpt lat="42.97074" lon="0.00956">
        <ele>1615</ele>
        <time>2021-12-03T10:47:58Z</time>
      </trkpt>
      <trkpt lat="42.97077" lon="0.00956">
        <ele>1615</ele>
        <time>2021-12-03T10:47:59Z</time>
      </trkpt>
      <trkpt lat="42.97091" lon="0.00955">
        <ele>1611</ele>
        <time>2021-12-03T10:48:05Z</time>
      </trkpt>
      <trkpt lat="42.97093" lon="0.00945">
        <ele>1606</ele>
        <time>2021-12-03T10:48:08Z</time>
      </trkpt>
      <trkpt lat="42.97091" lon="0.00938">
        <ele>1606</ele>
        <time>2021-12-03T10:48:10Z</time>
      </trkpt>
      <trkpt lat="42.97094" lon="0.00933">
        <ele>1606</ele>
        <time>2021-12-03T10:48:18Z</time>
      </trkpt>
      <trkpt lat="42.97096" lon="0.00935">
        <ele>1606</ele>
        <time>2021-12-03T10:48:33Z</time>
      </trkpt>
      <trkpt lat="42.97098" lon="0.00936">
        <ele>1606</ele>
        <time>2021-12-03T10:48:48Z</time>
      </trkpt>
      <trkpt lat="42.971" lon="0.00937">
        <ele>1605</ele>
        <time>2021-12-03T10:48:59Z</time>
      </trkpt>
      <trkpt lat="42.971" lon="0.00935">
        <ele>1605</ele>
        <time>2021-12-03T10:49:24Z</time>
      </trkpt>
      <trkpt lat="42.97101" lon="0.00936">
        <ele>1605</ele>
        <time>2021-12-03T10:49:35Z</time>
      </trkpt>
      <trkpt lat="42.97113" lon="0.00927">
        <ele>1601</ele>
        <time>2021-12-03T10:49:39Z</time>
      </trkpt>
      <trkpt lat="42.97127" lon="0.00918">
        <ele>1597</ele>
        <time>2021-12-03T10:49:42Z</time>
      </trkpt>
      <trkpt lat="42.97144" lon="0.00921">
        <ele>1594</ele>
        <time>2021-12-03T10:49:50Z</time>
      </trkpt>
      <trkpt lat="42.97145" lon="0.00921">
        <ele>1594</ele>
        <time>2021-12-03T10:49:53Z</time>
      </trkpt>
      <trkpt lat="42.97153" lon="0.00915">
        <ele>1590</ele>
        <time>2021-12-03T10:49:58Z</time>
      </trkpt>
      <trkpt lat="42.97159" lon="0.00915">
        <ele>1587</ele>
        <time>2021-12-03T10:50:00Z</time>
      </trkpt>
      <trkpt lat="42.97165" lon="0.0091">
        <ele>1583</ele>
        <time>2021-12-03T10:50:02Z</time>
      </trkpt>
      <trkpt lat="42.97169" lon="0.0091">
        <ele>1581</ele>
        <time>2021-12-03T10:50:03Z</time>
      </trkpt>
      <trkpt lat="42.97187" lon="0.00907">
        <ele>1571</ele>
        <time>2021-12-03T10:50:07Z</time>
      </trkpt>
      <trkpt lat="42.97198" lon="0.00897">
        <ele>1567</ele>
        <time>2021-12-03T10:50:09Z</time>
      </trkpt>
      <trkpt lat="42.97207" lon="0.00892">
        <ele>1566</ele>
        <time>2021-12-03T10:50:11Z</time>
      </trkpt>
      <trkpt lat="42.97215" lon="0.0089">
        <ele>1565</ele>
        <time>2021-12-03T10:50:19Z</time>
      </trkpt>
      <trkpt lat="42.97214" lon="0.00888">
        <ele>1566</ele>
        <time>2021-12-03T10:50:40Z</time>
      </trkpt>
      <trkpt lat="42.97214" lon="0.00887">
        <ele>1566</ele>
        <time>2021-12-03T10:50:46Z</time>
      </trkpt>
      <trkpt lat="42.97215" lon="0.00873">
        <ele>1562</ele>
        <time>2021-12-03T10:50:52Z</time>
      </trkpt>
      <trkpt lat="42.97215" lon="0.00872">
        <ele>1563</ele>
        <time>2021-12-03T10:50:53Z</time>
      </trkpt>
      <trkpt lat="42.97215" lon="0.00869">
        <ele>1561</ele>
        <time>2021-12-03T10:50:56Z</time>
      </trkpt>
      <trkpt lat="42.97223" lon="0.00865">
        <ele>1558</ele>
        <time>2021-12-03T10:51:00Z</time>
      </trkpt>
      <trkpt lat="42.97225" lon="0.00863">
        <ele>1558</ele>
        <time>2021-12-03T10:51:01Z</time>
      </trkpt>
      <trkpt lat="42.97235" lon="0.00856">
        <ele>1551</ele>
        <time>2021-12-03T10:51:05Z</time>
      </trkpt>
      <trkpt lat="42.97245" lon="0.00852">
        <ele>1547</ele>
        <time>2021-12-03T10:51:08Z</time>
      </trkpt>
      <trkpt lat="42.97254" lon="0.00845">
        <ele>1543</ele>
        <time>2021-12-03T10:51:10Z</time>
      </trkpt>
      <trkpt lat="42.97264" lon="0.00837">
        <ele>1539</ele>
        <time>2021-12-03T10:51:12Z</time>
      </trkpt>
      <trkpt lat="42.97273" lon="0.00832">
        <ele>1537</ele>
        <time>2021-12-03T10:51:14Z</time>
      </trkpt>
      <trkpt lat="42.97277" lon="0.00832">
        <ele>1538</ele>
        <time>2021-12-03T10:51:22Z</time>
      </trkpt>
      <trkpt lat="42.97273" lon="0.0083">
        <ele>1538</ele>
        <time>2021-12-03T10:51:46Z</time>
      </trkpt>
      <trkpt lat="42.97277" lon="0.00827">
        <ele>1538</ele>
        <time>2021-12-03T10:52:04Z</time>
      </trkpt>
      <trkpt lat="42.97298" lon="0.00823">
        <ele>1534</ele>
        <time>2021-12-03T10:52:17Z</time>
      </trkpt>
      <trkpt lat="42.97305" lon="0.00827">
        <ele>1533</ele>
        <time>2021-12-03T10:52:19Z</time>
      </trkpt>
      <trkpt lat="42.97314" lon="0.00823">
        <ele>1530</ele>
        <time>2021-12-03T10:52:23Z</time>
      </trkpt>
      <trkpt lat="42.97315" lon="0.00825">
        <ele>1528</ele>
        <time>2021-12-03T10:52:25Z</time>
      </trkpt>
      <trkpt lat="42.97317" lon="0.00827">
        <ele>1528</ele>
        <time>2021-12-03T10:52:34Z</time>
      </trkpt>
      <trkpt lat="42.97322" lon="0.00817">
        <ele>1523</ele>
        <time>2021-12-03T10:52:38Z</time>
      </trkpt>
      <trkpt lat="42.97323" lon="0.00813">
        <ele>1523</ele>
        <time>2021-12-03T10:52:39Z</time>
      </trkpt>
      <trkpt lat="42.97323" lon="0.00808">
        <ele>1522</ele>
        <time>2021-12-03T10:52:40Z</time>
      </trkpt>
      <trkpt lat="42.97338" lon="0.00784">
        <ele>1516</ele>
        <time>2021-12-03T10:52:45Z</time>
      </trkpt>
      <trkpt lat="42.97357" lon="0.00771">
        <ele>1511</ele>
        <time>2021-12-03T10:52:49Z</time>
      </trkpt>
      <trkpt lat="42.97366" lon="0.00764">
        <ele>1510</ele>
        <time>2021-12-03T10:52:52Z</time>
      </trkpt>
      <trkpt lat="42.97364" lon="0.00765">
        <ele>1510</ele>
        <time>2021-12-03T10:53:07Z</time>
      </trkpt>
      <trkpt lat="42.9736" lon="0.0075">
        <ele>1509</ele>
        <time>2021-12-03T10:53:24Z</time>
      </trkpt>
      <trkpt lat="42.97357" lon="0.00732">
        <ele>1505</ele>
        <time>2021-12-03T10:53:28Z</time>
      </trkpt>
      <trkpt lat="42.97354" lon="0.0072">
        <ele>1505</ele>
        <time>2021-12-03T10:53:30Z</time>
      </trkpt>
      <trkpt lat="42.97343" lon="0.00693">
        <ele>1501</ele>
        <time>2021-12-03T10:53:34Z</time>
      </trkpt>
      <trkpt lat="42.97338" lon="0.0068">
        <ele>1499</ele>
        <time>2021-12-03T10:53:36Z</time>
      </trkpt>
      <trkpt lat="42.9733" lon="0.00665">
        <ele>1497</ele>
        <time>2021-12-03T10:53:39Z</time>
      </trkpt>
      <trkpt lat="42.97322" lon="0.00654">
        <ele>1498</ele>
        <time>2021-12-03T10:53:46Z</time>
      </trkpt>
      <trkpt lat="42.97323" lon="0.00648">
        <ele>1499</ele>
        <time>2021-12-03T10:54:00Z</time>
      </trkpt>
      <trkpt lat="42.97323" lon="0.0065">
        <ele>1499</ele>
        <time>2021-12-03T10:54:12Z</time>
      </trkpt>
      <trkpt lat="42.97323" lon="0.00653">
        <ele>1498</ele>
        <time>2021-12-03T10:54:27Z</time>
      </trkpt>
      <trkpt lat="42.97322" lon="0.00652">
        <ele>1498</ele>
        <time>2021-12-03T10:54:44Z</time>
      </trkpt>
      <trkpt lat="42.97323" lon="0.00652">
        <ele>1499</ele>
        <time>2021-12-03T10:55:00Z</time>
      </trkpt>
      <trkpt lat="42.97322" lon="0.00651">
        <ele>1498</ele>
        <time>2021-12-03T10:55:22Z</time>
      </trkpt>
      <trkpt lat="42.97319" lon="0.00654">
        <ele>1498</ele>
        <time>2021-12-03T10:55:54Z</time>
      </trkpt>
      <trkpt lat="42.9732" lon="0.00654">
        <ele>1498</ele>
        <time>2021-12-03T10:56:19Z</time>
      </trkpt>
      <trkpt lat="42.9732" lon="0.00657">
        <ele>1498</ele>
        <time>2021-12-03T10:56:40Z</time>
      </trkpt>
      <trkpt lat="42.97322" lon="0.00656">
        <ele>1497</ele>
        <time>2021-12-03T10:57:07Z</time>
      </trkpt>
      <trkpt lat="42.97323" lon="0.0065">
        <ele>1499</ele>
        <time>2021-12-03T10:57:23Z</time>
      </trkpt>
      <trkpt lat="42.97323" lon="0.00649">
        <ele>1498</ele>
        <time>2021-12-03T10:57:46Z</time>
      </trkpt>
      <trkpt lat="42.97325" lon="0.00647">
        <ele>1499</ele>
        <time>2021-12-03T10:58:12Z</time>
      </trkpt>
      <trkpt lat="42.97324" lon="0.00647">
        <ele>1498</ele>
        <time>2021-12-03T10:58:29Z</time>
      </trkpt>
      <trkpt lat="42.97326" lon="0.00647">
        <ele>1498</ele>
        <time>2021-12-03T10:58:47Z</time>
      </trkpt>
      <trkpt lat="42.97328" lon="0.00649">
        <ele>1498</ele>
        <time>2021-12-03T10:59:15Z</time>
      </trkpt>
      <trkpt lat="42.97327" lon="0.00647">
        <ele>1498</ele>
        <time>2021-12-03T10:59:38Z</time>
      </trkpt>
      <trkpt lat="42.97323" lon="0.0065">
        <ele>1498</ele>
        <time>2021-12-03T10:59:58Z</time>
      </trkpt>
      <trkpt lat="42.97325" lon="0.00645">
        <ele>1498</ele>
        <time>2021-12-03T11:00:15Z</time>
      </trkpt>
      <trkpt lat="42.97324" lon="0.00649">
        <ele>1498</ele>
        <time>2021-12-03T11:00:35Z</time>
      </trkpt>
      <trkpt lat="42.9732" lon="0.00654">
        <ele>1499</ele>
        <time>2021-12-03T11:00:54Z</time>
      </trkpt>
      <trkpt lat="42.97323" lon="0.00652">
        <ele>1499</ele>
        <time>2021-12-03T11:01:12Z</time>
      </trkpt>
      <trkpt lat="42.97323" lon="0.00652">
        <ele>1499</ele>
        <time>2021-12-03T11:01:29Z</time>
      </trkpt>
      <trkpt lat="42.97326" lon="0.00651">
        <ele>1499</ele>
        <time>2021-12-03T11:01:48Z</time>
      </trkpt>
      <trkpt lat="42.97324" lon="0.00649">
        <ele>1499</ele>
        <time>2021-12-03T11:02:13Z</time>
      </trkpt>
      <trkpt lat="42.97317" lon="0.00649">
        <ele>1499</ele>
        <time>2021-12-03T11:02:27Z</time>
      </trkpt>
      <trkpt lat="42.97311" lon="0.00644">
        <ele>1499</ele>
        <time>2021-12-03T11:02:42Z</time>
      </trkpt>
      <trkpt lat="42.97307" lon="0.00633">
        <ele>1501</ele>
        <time>2021-12-03T11:02:54Z</time>
      </trkpt>
      <trkpt lat="42.97296" lon="0.00626">
        <ele>1502</ele>
        <time>2021-12-03T11:03:10Z</time>
      </trkpt>
      <trkpt lat="42.97288" lon="0.00619">
        <ele>1503</ele>
        <time>2021-12-03T11:03:23Z</time>
      </trkpt>
      <trkpt lat="42.97287" lon="0.00619">
        <ele>1503</ele>
        <time>2021-12-03T11:03:24Z</time>
      </trkpt>
      <trkpt lat="42.97278" lon="0.00623">
        <ele>1505</ele>
        <time>2021-12-03T11:03:40Z</time>
      </trkpt>
      <trkpt lat="42.97268" lon="0.00617">
        <ele>1506</ele>
        <time>2021-12-03T11:03:54Z</time>
      </trkpt>
      <trkpt lat="42.97261" lon="0.00598">
        <ele>1507</ele>
        <time>2021-12-03T11:04:09Z</time>
      </trkpt>
      <trkpt lat="42.97256" lon="0.00591">
        <ele>1509</ele>
        <time>2021-12-03T11:04:22Z</time>
      </trkpt>
      <trkpt lat="42.97252" lon="0.00586">
        <ele>1510</ele>
        <time>2021-12-03T11:04:39Z</time>
      </trkpt>
      <trkpt lat="42.97246" lon="0.00583">
        <ele>1512</ele>
        <time>2021-12-03T11:04:55Z</time>
      </trkpt>
      <trkpt lat="42.9724" lon="0.00579">
        <ele>1513</ele>
        <time>2021-12-03T11:05:10Z</time>
      </trkpt>
      <trkpt lat="42.97238" lon="0.00565">
        <ele>1514</ele>
        <time>2021-12-03T11:05:22Z</time>
      </trkpt>
      <trkpt lat="42.97239" lon="0.00562">
        <ele>1514</ele>
        <time>2021-12-03T11:05:24Z</time>
      </trkpt>
      <trkpt lat="42.9724" lon="0.00553">
        <ele>1514</ele>
        <time>2021-12-03T11:05:31Z</time>
      </trkpt>
      <trkpt lat="42.97238" lon="0.0054">
        <ele>1515</ele>
        <time>2021-12-03T11:05:45Z</time>
      </trkpt>
      <trkpt lat="42.97234" lon="0.00527">
        <ele>1517</ele>
        <time>2021-12-03T11:06:00Z</time>
      </trkpt>
      <trkpt lat="42.97236" lon="0.00536">
        <ele>1518</ele>
        <time>2021-12-03T11:06:13Z</time>
      </trkpt>
      <trkpt lat="42.97236" lon="0.00545">
        <ele>1519</ele>
        <time>2021-12-03T11:06:26Z</time>
      </trkpt>
      <trkpt lat="42.97231" lon="0.00536">
        <ele>1519</ele>
        <time>2021-12-03T11:06:42Z</time>
      </trkpt>
      <trkpt lat="42.97229" lon="0.00534">
        <ele>1520</ele>
        <time>2021-12-03T11:06:46Z</time>
      </trkpt>
      <trkpt lat="42.97223" lon="0.00525">
        <ele>1523</ele>
        <time>2021-12-03T11:07:02Z</time>
      </trkpt>
      <trkpt lat="42.97216" lon="0.00508">
        <ele>1524</ele>
        <time>2021-12-03T11:07:20Z</time>
      </trkpt>
      <trkpt lat="42.97213" lon="0.00494">
        <ele>1527</ele>
        <time>2021-12-03T11:07:36Z</time>
      </trkpt>
      <trkpt lat="42.97213" lon="0.00499">
        <ele>1527</ele>
        <time>2021-12-03T11:07:48Z</time>
      </trkpt>
      <trkpt lat="42.9721" lon="0.00508">
        <ele>1529</ele>
        <time>2021-12-03T11:08:02Z</time>
      </trkpt>
      <trkpt lat="42.97207" lon="0.00517">
        <ele>1531</ele>
        <time>2021-12-03T11:08:16Z</time>
      </trkpt>
      <trkpt lat="42.97203" lon="0.00513">
        <ele>1532</ele>
        <time>2021-12-03T11:08:27Z</time>
      </trkpt>
      <trkpt lat="42.972" lon="0.00502">
        <ele>1533</ele>
        <time>2021-12-03T11:08:40Z</time>
      </trkpt>
      <trkpt lat="42.97196" lon="0.0049">
        <ele>1535</ele>
        <time>2021-12-03T11:08:52Z</time>
      </trkpt>
      <trkpt lat="42.97196" lon="0.00484">
        <ele>1536</ele>
        <time>2021-12-03T11:08:59Z</time>
      </trkpt>
      <trkpt lat="42.97195" lon="0.0047">
        <ele>1538</ele>
        <time>2021-12-03T11:09:15Z</time>
      </trkpt>
      <trkpt lat="42.97195" lon="0.00459">
        <ele>1539</ele>
        <time>2021-12-03T11:09:30Z</time>
      </trkpt>
      <trkpt lat="42.97193" lon="0.0044">
        <ele>1540</ele>
        <time>2021-12-03T11:09:46Z</time>
      </trkpt>
      <trkpt lat="42.97195" lon="0.0043">
        <ele>1541</ele>
        <time>2021-12-03T11:09:56Z</time>
      </trkpt>
      <trkpt lat="42.97196" lon="0.00416">
        <ele>1542</ele>
        <time>2021-12-03T11:10:09Z</time>
      </trkpt>
      <trkpt lat="42.97196" lon="0.00409">
        <ele>1543</ele>
        <time>2021-12-03T11:10:15Z</time>
      </trkpt>
      <trkpt lat="42.97198" lon="0.00395">
        <ele>1544</ele>
        <time>2021-12-03T11:10:30Z</time>
      </trkpt>
      <trkpt lat="42.97201" lon="0.00384">
        <ele>1545</ele>
        <time>2021-12-03T11:10:43Z</time>
      </trkpt>
      <trkpt lat="42.97203" lon="0.0038">
        <ele>1546</ele>
        <time>2021-12-03T11:10:47Z</time>
      </trkpt>
      <trkpt lat="42.97209" lon="0.00367">
        <ele>1546</ele>
        <time>2021-12-03T11:11:00Z</time>
      </trkpt>
      <trkpt lat="42.97212" lon="0.00361">
        <ele>1546</ele>
        <time>2021-12-03T11:11:06Z</time>
      </trkpt>
      <trkpt lat="42.97215" lon="0.00358">
        <ele>1547</ele>
        <time>2021-12-03T11:11:10Z</time>
      </trkpt>
      <trkpt lat="42.97216" lon="0.00357">
        <ele>1547</ele>
        <time>2021-12-03T11:11:11Z</time>
      </trkpt>
      <trkpt lat="42.97218" lon="0.00353">
        <ele>1547</ele>
        <time>2021-12-03T11:11:15Z</time>
      </trkpt>
      <trkpt lat="42.97223" lon="0.00344">
        <ele>1548</ele>
        <time>2021-12-03T11:11:25Z</time>
      </trkpt>
      <trkpt lat="42.97215" lon="0.00328">
        <ele>1551</ele>
        <time>2021-12-03T11:11:41Z</time>
      </trkpt>
      <trkpt lat="42.9721" lon="0.00318">
        <ele>1552</ele>
        <time>2021-12-03T11:11:55Z</time>
      </trkpt>
      <trkpt lat="42.97206" lon="0.00307">
        <ele>1553</ele>
        <time>2021-12-03T11:12:08Z</time>
      </trkpt>
      <trkpt lat="42.972" lon="0.00293">
        <ele>1553</ele>
        <time>2021-12-03T11:12:22Z</time>
      </trkpt>
      <trkpt lat="42.97196" lon="0.00282">
        <ele>1556</ele>
        <time>2021-12-03T11:12:36Z</time>
      </trkpt>
      <trkpt lat="42.97194" lon="0.00271">
        <ele>1556</ele>
        <time>2021-12-03T11:12:50Z</time>
      </trkpt>
      <trkpt lat="42.97192" lon="0.0026">
        <ele>1558</ele>
        <time>2021-12-03T11:13:04Z</time>
      </trkpt>
      <trkpt lat="42.97193" lon="0.00245">
        <ele>1561</ele>
        <time>2021-12-03T11:13:18Z</time>
      </trkpt>
      <trkpt lat="42.97195" lon="0.00234">
        <ele>1562</ele>
        <time>2021-12-03T11:13:30Z</time>
      </trkpt>
      <trkpt lat="42.97197" lon="0.00221">
        <ele>1563</ele>
        <time>2021-12-03T11:13:43Z</time>
      </trkpt>
      <trkpt lat="42.97196" lon="0.00213">
        <ele>1566</ele>
        <time>2021-12-03T11:13:57Z</time>
      </trkpt>
      <trkpt lat="42.97194" lon="0.00211">
        <ele>1568</ele>
        <time>2021-12-03T11:14:14Z</time>
      </trkpt>
      <trkpt lat="42.97187" lon="0.0021">
        <ele>1569</ele>
        <time>2021-12-03T11:14:27Z</time>
      </trkpt>
      <trkpt lat="42.97183" lon="0.00204">
        <ele>1570</ele>
        <time>2021-12-03T11:14:39Z</time>
      </trkpt>
      <trkpt lat="42.97181" lon="0.0019">
        <ele>1572</ele>
        <time>2021-12-03T11:14:54Z</time>
      </trkpt>
      <trkpt lat="42.97176" lon="0.00175">
        <ele>1575</ele>
        <time>2021-12-03T11:15:09Z</time>
      </trkpt>
      <trkpt lat="42.97172" lon="0.00163">
        <ele>1576</ele>
        <time>2021-12-03T11:15:22Z</time>
      </trkpt>
      <trkpt lat="42.97168" lon="0.00152">
        <ele>1577</ele>
        <time>2021-12-03T11:15:34Z</time>
      </trkpt>
      <trkpt lat="42.97164" lon="0.00137">
        <ele>1578</ele>
        <time>2021-12-03T11:15:49Z</time>
      </trkpt>
      <trkpt lat="42.9716" lon="0.00124">
        <ele>1579</ele>
        <time>2021-12-03T11:16:01Z</time>
      </trkpt>
      <trkpt lat="42.97157" lon="0.00108">
        <ele>1581</ele>
        <time>2021-12-03T11:16:13Z</time>
      </trkpt>
      <trkpt lat="42.97153" lon="0.00092">
        <ele>1582</ele>
        <time>2021-12-03T11:16:27Z</time>
      </trkpt>
      <trkpt lat="42.97151" lon="0.00082">
        <ele>1583</ele>
        <time>2021-12-03T11:16:39Z</time>
      </trkpt>
      <trkpt lat="42.9715" lon="0.00078">
        <ele>1584</ele>
        <time>2021-12-03T11:16:44Z</time>
      </trkpt>
      <trkpt lat="42.97149" lon="0.00065">
        <ele>1584</ele>
        <time>2021-12-03T11:16:56Z</time>
      </trkpt>
      <trkpt lat="42.97145" lon="0.0005">
        <ele>1586</ele>
        <time>2021-12-03T11:17:10Z</time>
      </trkpt>
      <trkpt lat="42.9714" lon="0.00034">
        <ele>1587</ele>
        <time>2021-12-03T11:17:24Z</time>
      </trkpt>
      <trkpt lat="42.97139" lon="0.00031">
        <ele>1587</ele>
        <time>2021-12-03T11:17:27Z</time>
      </trkpt>
      <trkpt lat="42.97136" lon="0.00026">
        <ele>1588</ele>
        <time>2021-12-03T11:17:34Z</time>
      </trkpt>
      <trkpt lat="42.9713" lon="0.0001">
        <ele>1590</ele>
        <time>2021-12-03T11:17:49Z</time>
      </trkpt>
      <trkpt lat="42.97128" lon="4.0E-5">
        <ele>1590</ele>
        <time>2021-12-03T11:17:55Z</time>
      </trkpt>
      <trkpt lat="42.97126" lon="-0.00014">
        <ele>1593</ele>
        <time>2021-12-03T11:18:11Z</time>
      </trkpt>
      <trkpt lat="42.97119" lon="-0.00027">
        <ele>1593</ele>
        <time>2021-12-03T11:18:25Z</time>
      </trkpt>
      <trkpt lat="42.97113" lon="-0.00038">
        <ele>1594</ele>
        <time>2021-12-03T11:18:35Z</time>
      </trkpt>
      <trkpt lat="42.97105" lon="-0.00056">
        <ele>1594</ele>
        <time>2021-12-03T11:18:51Z</time>
      </trkpt>
      <trkpt lat="42.971" lon="-0.00073">
        <ele>1595</ele>
        <time>2021-12-03T11:19:05Z</time>
      </trkpt>
      <trkpt lat="42.97099" lon="-0.00079">
        <ele>1595</ele>
        <time>2021-12-03T11:19:10Z</time>
      </trkpt>
      <trkpt lat="42.97099" lon="-0.00097">
        <ele>1596</ele>
        <time>2021-12-03T11:19:25Z</time>
      </trkpt>
      <trkpt lat="42.971" lon="-0.00114">
        <ele>1597</ele>
        <time>2021-12-03T11:19:39Z</time>
      </trkpt>
      <trkpt lat="42.97105" lon="-0.00129">
        <ele>1598</ele>
        <time>2021-12-03T11:19:50Z</time>
      </trkpt>
      <trkpt lat="42.97106" lon="-0.00143">
        <ele>1600</ele>
        <time>2021-12-03T11:20:04Z</time>
      </trkpt>
      <trkpt lat="42.97106" lon="-0.00161">
        <ele>1602</ele>
        <time>2021-12-03T11:20:20Z</time>
      </trkpt>
      <trkpt lat="42.97106" lon="-0.00173">
        <ele>1602</ele>
        <time>2021-12-03T11:20:33Z</time>
      </trkpt>
      <trkpt lat="42.97105" lon="-0.0018">
        <ele>1603</ele>
        <time>2021-12-03T11:20:44Z</time>
      </trkpt>
      <trkpt lat="42.97105" lon="-0.00181">
        <ele>1603</ele>
        <time>2021-12-03T11:20:45Z</time>
      </trkpt>
      <trkpt lat="42.97108" lon="-0.00199">
        <ele>1604</ele>
        <time>2021-12-03T11:21:01Z</time>
      </trkpt>
      <trkpt lat="42.9711" lon="-0.00211">
        <ele>1606</ele>
        <time>2021-12-03T11:21:14Z</time>
      </trkpt>
      <trkpt lat="42.9711" lon="-0.00213">
        <ele>1606</ele>
        <time>2021-12-03T11:21:17Z</time>
      </trkpt>
      <trkpt lat="42.97112" lon="-0.00226">
        <ele>1608</ele>
        <time>2021-12-03T11:21:32Z</time>
      </trkpt>
      <trkpt lat="42.97114" lon="-0.00237">
        <ele>1610</ele>
        <time>2021-12-03T11:21:46Z</time>
      </trkpt>
      <trkpt lat="42.97115" lon="-0.00247">
        <ele>1612</ele>
        <time>2021-12-03T11:22:00Z</time>
      </trkpt>
      <trkpt lat="42.97115" lon="-0.0026">
        <ele>1613</ele>
        <time>2021-12-03T11:22:12Z</time>
      </trkpt>
      <trkpt lat="42.97115" lon="-0.00267">
        <ele>1613</ele>
        <time>2021-12-03T11:22:17Z</time>
      </trkpt>
      <trkpt lat="42.97111" lon="-0.00282">
        <ele>1614</ele>
        <time>2021-12-03T11:22:31Z</time>
      </trkpt>
      <trkpt lat="42.97105" lon="-0.00294">
        <ele>1615</ele>
        <time>2021-12-03T11:22:45Z</time>
      </trkpt>
      <trkpt lat="42.97102" lon="-0.00308">
        <ele>1615</ele>
        <time>2021-12-03T11:23:00Z</time>
      </trkpt>
      <trkpt lat="42.97103" lon="-0.00315">
        <ele>1614</ele>
        <time>2021-12-03T11:23:07Z</time>
      </trkpt>
      <trkpt lat="42.97108" lon="-0.00329">
        <ele>1612</ele>
        <time>2021-12-03T11:23:22Z</time>
      </trkpt>
      <trkpt lat="42.97108" lon="-0.0033">
        <ele>1613</ele>
        <time>2021-12-03T11:23:37Z</time>
      </trkpt>
      <trkpt lat="42.9711" lon="-0.00329">
        <ele>1613</ele>
        <time>2021-12-03T11:23:54Z</time>
      </trkpt>
      <trkpt lat="42.9711" lon="-0.00329">
        <ele>1613</ele>
        <time>2021-12-03T11:24:05Z</time>
      </trkpt>
      <trkpt lat="42.97112" lon="-0.00326">
        <ele>1614</ele>
        <time>2021-12-03T11:24:20Z</time>
      </trkpt>
      <trkpt lat="42.97112" lon="-0.00325">
        <ele>1613</ele>
        <time>2021-12-03T11:24:32Z</time>
      </trkpt>
      <trkpt lat="42.9711" lon="-0.00325">
        <ele>1613</ele>
        <time>2021-12-03T11:24:44Z</time>
      </trkpt>
      <trkpt lat="42.97109" lon="-0.00326">
        <ele>1614</ele>
        <time>2021-12-03T11:25:02Z</time>
      </trkpt>
      <trkpt lat="42.97111" lon="-0.00327">
        <ele>1614</ele>
        <time>2021-12-03T11:25:24Z</time>
      </trkpt>
      <trkpt lat="42.97107" lon="-0.00324">
        <ele>1613</ele>
        <time>2021-12-03T11:25:43Z</time>
      </trkpt>
      <trkpt lat="42.97104" lon="-0.00318">
        <ele>1614</ele>
        <time>2021-12-03T11:25:55Z</time>
      </trkpt>
      <trkpt lat="42.97105" lon="-0.00319">
        <ele>1614</ele>
        <time>2021-12-03T11:26:11Z</time>
      </trkpt>
      <trkpt lat="42.97107" lon="-0.00325">
        <ele>1613</ele>
        <time>2021-12-03T11:26:26Z</time>
      </trkpt>
      <trkpt lat="42.9711" lon="-0.00326">
        <ele>1613</ele>
        <time>2021-12-03T11:26:38Z</time>
      </trkpt>
      <trkpt lat="42.97109" lon="-0.00328">
        <ele>1613</ele>
        <time>2021-12-03T11:27:02Z</time>
      </trkpt>
      <trkpt lat="42.9711" lon="-0.00328">
        <ele>1614</ele>
        <time>2021-12-03T11:27:23Z</time>
      </trkpt>
      <trkpt lat="42.97111" lon="-0.00327">
        <ele>1614</ele>
        <time>2021-12-03T11:27:42Z</time>
      </trkpt>
      <trkpt lat="42.9711" lon="-0.00328">
        <ele>1615</ele>
        <time>2021-12-03T11:27:55Z</time>
      </trkpt>
      <trkpt lat="42.9711" lon="-0.00329">
        <ele>1615</ele>
        <time>2021-12-03T11:28:10Z</time>
      </trkpt>
      <trkpt lat="42.97111" lon="-0.0033">
        <ele>1614</ele>
        <time>2021-12-03T11:28:29Z</time>
      </trkpt>
      <trkpt lat="42.9711" lon="-0.00329">
        <ele>1614</ele>
        <time>2021-12-03T11:28:53Z</time>
      </trkpt>
      <trkpt lat="42.97112" lon="-0.00327">
        <ele>1614</ele>
        <time>2021-12-03T11:29:16Z</time>
      </trkpt>
      <trkpt lat="42.97109" lon="-0.00328">
        <ele>1613</ele>
        <time>2021-12-03T11:29:30Z</time>
      </trkpt>
      <trkpt lat="42.97112" lon="-0.00328">
        <ele>1613</ele>
        <time>2021-12-03T11:29:55Z</time>
      </trkpt>
      <trkpt lat="42.97111" lon="-0.00329">
        <ele>1614</ele>
        <time>2021-12-03T11:30:29Z</time>
      </trkpt>
      <trkpt lat="42.97112" lon="-0.00326">
        <ele>1613</ele>
        <time>2021-12-03T11:31:08Z</time>
      </trkpt>
      <trkpt lat="42.97111" lon="-0.00329">
        <ele>1613</ele>
        <time>2021-12-03T11:31:42Z</time>
      </trkpt>
      <trkpt lat="42.97109" lon="-0.0033">
        <ele>1614</ele>
        <time>2021-12-03T11:32:16Z</time>
      </trkpt>
      <trkpt lat="42.97111" lon="-0.00328">
        <ele>1613</ele>
        <time>2021-12-03T11:32:49Z</time>
      </trkpt>
      <trkpt lat="42.97113" lon="-0.00328">
        <ele>1613</ele>
        <time>2021-12-03T11:33:18Z</time>
      </trkpt>
      <trkpt lat="42.97111" lon="-0.00329">
        <ele>1613</ele>
        <time>2021-12-03T11:33:52Z</time>
      </trkpt>
      <trkpt lat="42.97112" lon="-0.00326">
        <ele>1614</ele>
        <time>2021-12-03T11:34:10Z</time>
      </trkpt>
      <trkpt lat="42.97113" lon="-0.00326">
        <ele>1615</ele>
        <time>2021-12-03T11:34:23Z</time>
      </trkpt>
      <trkpt lat="42.97115" lon="-0.0033">
        <ele>1615</ele>
        <time>2021-12-03T11:34:48Z</time>
      </trkpt>
      <trkpt lat="42.97114" lon="-0.00328">
        <ele>1615</ele>
        <time>2021-12-03T11:35:03Z</time>
      </trkpt>
      <trkpt lat="42.97112" lon="-0.00328">
        <ele>1615</ele>
        <time>2021-12-03T11:35:24Z</time>
      </trkpt>
      <trkpt lat="42.97112" lon="-0.00326">
        <ele>1615</ele>
        <time>2021-12-03T11:35:47Z</time>
      </trkpt>
      <trkpt lat="42.9711" lon="-0.00323">
        <ele>1614</ele>
        <time>2021-12-03T11:36:10Z</time>
      </trkpt>
      <trkpt lat="42.97109" lon="-0.00323">
        <ele>1614</ele>
        <time>2021-12-03T11:36:12Z</time>
      </trkpt>
      <trkpt lat="42.97106" lon="-0.00334">
        <ele>1613</ele>
        <time>2021-12-03T11:36:17Z</time>
      </trkpt>
      <trkpt lat="42.97104" lon="-0.00358">
        <ele>1610</ele>
        <time>2021-12-03T11:36:22Z</time>
      </trkpt>
      <trkpt lat="42.97106" lon="-0.00373">
        <ele>1605</ele>
        <time>2021-12-03T11:36:24Z</time>
      </trkpt>
      <trkpt lat="42.97107" lon="-0.00381">
        <ele>1606</ele>
        <time>2021-12-03T11:36:25Z</time>
      </trkpt>
      <trkpt lat="42.97111" lon="-0.00402">
        <ele>1600</ele>
        <time>2021-12-03T11:36:28Z</time>
      </trkpt>
      <trkpt lat="42.97115" lon="-0.0042">
        <ele>1596</ele>
        <time>2021-12-03T11:36:31Z</time>
      </trkpt>
      <trkpt lat="42.97116" lon="-0.00426">
        <ele>1596</ele>
        <time>2021-12-03T11:36:32Z</time>
      </trkpt>
      <trkpt lat="42.97115" lon="-0.0044">
        <ele>1592</ele>
        <time>2021-12-03T11:36:35Z</time>
      </trkpt>
      <trkpt lat="42.97116" lon="-0.00451">
        <ele>1589</ele>
        <time>2021-12-03T11:36:37Z</time>
      </trkpt>
      <trkpt lat="42.97118" lon="-0.00464">
        <ele>1586</ele>
        <time>2021-12-03T11:36:39Z</time>
      </trkpt>
      <trkpt lat="42.97117" lon="-0.00493">
        <ele>1582</ele>
        <time>2021-12-03T11:36:44Z</time>
      </trkpt>
      <trkpt lat="42.97115" lon="-0.00506">
        <ele>1579</ele>
        <time>2021-12-03T11:36:46Z</time>
      </trkpt>
      <trkpt lat="42.97117" lon="-0.00523">
        <ele>1575</ele>
        <time>2021-12-03T11:36:49Z</time>
      </trkpt>
      <trkpt lat="42.97122" lon="-0.00536">
        <ele>1572</ele>
        <time>2021-12-03T11:36:53Z</time>
      </trkpt>
      <trkpt lat="42.97123" lon="-0.00542">
        <ele>1570</ele>
        <time>2021-12-03T11:36:54Z</time>
      </trkpt>
      <trkpt lat="42.97125" lon="-0.00553">
        <ele>1569</ele>
        <time>2021-12-03T11:36:56Z</time>
      </trkpt>
      <trkpt lat="42.97128" lon="-0.00557">
        <ele>1567</ele>
        <time>2021-12-03T11:37:03Z</time>
      </trkpt>
      <trkpt lat="42.97129" lon="-0.00559">
        <ele>1566</ele>
        <time>2021-12-03T11:37:10Z</time>
      </trkpt>
      <trkpt lat="42.97125" lon="-0.00568">
        <ele>1564</ele>
        <time>2021-12-03T11:37:14Z</time>
      </trkpt>
      <trkpt lat="42.97131" lon="-0.00582">
        <ele>1560</ele>
        <time>2021-12-03T11:37:17Z</time>
      </trkpt>
      <trkpt lat="42.97136" lon="-0.00595">
        <ele>1557</ele>
        <time>2021-12-03T11:37:20Z</time>
      </trkpt>
      <trkpt lat="42.97132" lon="-0.00605">
        <ele>1553</ele>
        <time>2021-12-03T11:37:22Z</time>
      </trkpt>
      <trkpt lat="42.97132" lon="-0.00621">
        <ele>1551</ele>
        <time>2021-12-03T11:37:25Z</time>
      </trkpt>
      <trkpt lat="42.97135" lon="-0.00631">
        <ele>1548</ele>
        <time>2021-12-03T11:37:27Z</time>
      </trkpt>
      <trkpt lat="42.97138" lon="-0.00649">
        <ele>1544</ele>
        <time>2021-12-03T11:37:30Z</time>
      </trkpt>
      <trkpt lat="42.97144" lon="-0.00669">
        <ele>1541</ele>
        <time>2021-12-03T11:37:34Z</time>
      </trkpt>
      <trkpt lat="42.97147" lon="-0.00685">
        <ele>1537</ele>
        <time>2021-12-03T11:37:37Z</time>
      </trkpt>
      <trkpt lat="42.97147" lon="-0.007">
        <ele>1534</ele>
        <time>2021-12-03T11:37:41Z</time>
      </trkpt>
      <trkpt lat="42.97144" lon="-0.00702">
        <ele>1535</ele>
        <time>2021-12-03T11:37:45Z</time>
      </trkpt>
      <trkpt lat="42.97144" lon="-0.00703">
        <ele>1535</ele>
        <time>2021-12-03T11:37:46Z</time>
      </trkpt>
      <trkpt lat="42.97147" lon="-0.00714">
        <ele>1532</ele>
        <time>2021-12-03T11:37:50Z</time>
      </trkpt>
      <trkpt lat="42.97152" lon="-0.00721">
        <ele>1532</ele>
        <time>2021-12-03T11:37:52Z</time>
      </trkpt>
      <trkpt lat="42.97161" lon="-0.00731">
        <ele>1528</ele>
        <time>2021-12-03T11:37:55Z</time>
      </trkpt>
      <trkpt lat="42.97166" lon="-0.00737">
        <ele>1527</ele>
        <time>2021-12-03T11:37:57Z</time>
      </trkpt>
      <trkpt lat="42.97177" lon="-0.00746">
        <ele>1524</ele>
        <time>2021-12-03T11:38:01Z</time>
      </trkpt>
      <trkpt lat="42.97187" lon="-0.00742">
        <ele>1522</ele>
        <time>2021-12-03T11:38:04Z</time>
      </trkpt>
      <trkpt lat="42.97202" lon="-0.00746">
        <ele>1519</ele>
        <time>2021-12-03T11:38:08Z</time>
      </trkpt>
      <trkpt lat="42.97213" lon="-0.0075">
        <ele>1519</ele>
        <time>2021-12-03T11:38:18Z</time>
      </trkpt>
      <trkpt lat="42.97221" lon="-0.00743">
        <ele>1519</ele>
        <time>2021-12-03T11:38:32Z</time>
      </trkpt>
      <trkpt lat="42.97221" lon="-0.00735">
        <ele>1519</ele>
        <time>2021-12-03T11:38:45Z</time>
      </trkpt>
      <trkpt lat="42.97221" lon="-0.00731">
        <ele>1519</ele>
        <time>2021-12-03T11:39:00Z</time>
      </trkpt>
      <trkpt lat="42.9722" lon="-0.00734">
        <ele>1520</ele>
        <time>2021-12-03T11:39:22Z</time>
      </trkpt>
      <trkpt lat="42.97222" lon="-0.00735">
        <ele>1520</ele>
        <time>2021-12-03T11:39:46Z</time>
      </trkpt>
      <trkpt lat="42.97224" lon="-0.00734">
        <ele>1520</ele>
        <time>2021-12-03T11:40:00Z</time>
      </trkpt>
      <trkpt lat="42.97225" lon="-0.00735">
        <ele>1520</ele>
        <time>2021-12-03T11:40:15Z</time>
      </trkpt>
      <trkpt lat="42.97226" lon="-0.00733">
        <ele>1520</ele>
        <time>2021-12-03T11:40:19Z</time>
      </trkpt>
      <trkpt lat="42.97233" lon="-0.00731">
        <ele>1520</ele>
        <time>2021-12-03T11:40:29Z</time>
      </trkpt>
      <trkpt lat="42.97238" lon="-0.00731">
        <ele>1520</ele>
        <time>2021-12-03T11:40:39Z</time>
      </trkpt>
      <trkpt lat="42.97242" lon="-0.00733">
        <ele>1521</ele>
        <time>2021-12-03T11:40:50Z</time>
      </trkpt>
      <trkpt lat="42.97245" lon="-0.00732">
        <ele>1521</ele>
        <time>2021-12-03T11:41:08Z</time>
      </trkpt>
      <trkpt lat="42.97245" lon="-0.00734">
        <ele>1520</ele>
        <time>2021-12-03T11:41:25Z</time>
      </trkpt>
      <trkpt lat="42.97248" lon="-0.00731">
        <ele>1521</ele>
        <time>2021-12-03T11:41:43Z</time>
      </trkpt>
      <trkpt lat="42.97249" lon="-0.00732">
        <ele>1521</ele>
        <time>2021-12-03T11:41:57Z</time>
      </trkpt>
      <trkpt lat="42.9725" lon="-0.00733">
        <ele>1520</ele>
        <time>2021-12-03T11:41:59Z</time>
      </trkpt>
      <trkpt lat="42.97253" lon="-0.00733">
        <ele>1520</ele>
        <time>2021-12-03T11:42:13Z</time>
      </trkpt>
      <trkpt lat="42.97254" lon="-0.00731">
        <ele>1520</ele>
        <time>2021-12-03T11:42:30Z</time>
      </trkpt>
      <trkpt lat="42.97257" lon="-0.00733">
        <ele>1522</ele>
        <time>2021-12-03T11:42:48Z</time>
      </trkpt>
      <trkpt lat="42.97255" lon="-0.00732">
        <ele>1519</ele>
        <time>2021-12-03T11:42:55Z</time>
      </trkpt>
      <trkpt lat="42.97255" lon="-0.00732">
        <ele>1522</ele>
        <time>2021-12-03T11:42:56Z</time>
      </trkpt>
    </trkseg>
  </trk>
</gpx>